Observation data for Sterling City on 07/07/2020      Previous  Date  Next       Current Mesonet Observations  Soil Data  Daily Summary Page  Observations in Plain Language
KSC1 070500Z 27002KT 24/20 A3001 RMK A01 T02400199  RH  078%=      5-min Rain = 0
KSC1 070501Z 26002KT 24/20 A3001 RMK A01 T02400198  RH  077%=      5-min Rain = 0
KSC1 070502Z 26002KT 24/20 A3001 RMK A01 T02400196  RH  077%=      5-min Rain = 0
KSC1 070503Z 27002KT 24/20 A3001 RMK A01 T02410198  RH  077%=      5-min Rain = 0
KSC1 070504Z 27002KT 24/20 A3001 RMK A01 T02400199  RH  078%=      5-min Rain = 0
KSC1 070505Z 27002KT 24/20 A3001 RMK A01 T02400198  RH  077%=      5-min Rain = 0
KSC1 070506Z 28003KT 24/20 A3001 RMK A01 T02400198  RH  077%=      5-min Rain = 0
KSC1 070507Z 29003KT 24/20 A3001 RMK A01 T02400198  RH  077%=      5-min Rain = 0
KSC1 070508Z 29003KT 24/20 A3001 RMK A01 T02400195  RH  076%=      5-min Rain = 0
KSC1 070509Z 30003KT 24/19 A3001 RMK A01 T02400194  RH  075%=      5-min Rain = 0
KSC1 070510Z 30003KT 24/20 A3001 RMK A01 T02410195  RH  075%=      5-min Rain = 0
KSC1 070511Z 30002KT 24/20 A3001 RMK A01 T02410195  RH  076%=      5-min Rain = 0
KSC1 070512Z 30002KT 24/20 A3001 RMK A01 T02410196  RH  076%=      5-min Rain = 0
KSC1 070513Z 29002KT 24/20 A3001 RMK A01 T02410198  RH  077%=      5-min Rain = 0
KSC1 070514Z 29002KT 24/20 A3001 RMK A01 T02410196  RH  076%=      5-min Rain = 0
KSC1 070515Z 28001KT 24/20 A3001 RMK A01 T02400196  RH  076%=      5-min Rain = 0
KSC1 070516Z 27002KT 24/20 A3001 RMK A01 T02400199  RH  078%=      5-min Rain = 0
KSC1 070517Z 26002KT 24/20 A3001 RMK A01 T02380201  RH  080%=      5-min Rain = 0
KSC1 070518Z 26001KT 24/20 A3001 RMK A01 T02370200  RH  080%=      5-min Rain = 0
KSC1 070519Z 26001KT 24/20 A3001 RMK A01 T02360198  RH  079%=      5-min Rain = 0
KSC1 070520Z 26001KT 24/20 A3001 RMK A01 T02360198  RH  080%=      5-min Rain = 0
KSC1 070521Z 26001KT 24/20 A3001 RMK A01 T02350198  RH  080%=      5-min Rain = 0
KSC1 070522Z 26001KT 24/20 A3001 RMK A01 T02350200  RH  081%=      5-min Rain = 0
KSC1 070523Z 26001KT 24/20 A3001 RMK A01 T02350199  RH  080%=      5-min Rain = 0
KSC1 070524Z 26001KT 23/20 A3001 RMK A01 T02340199  RH  081%=      5-min Rain = 0
KSC1 070525Z 27001KT 23/20 A3001 RMK A01 T02340200  RH  081%=      5-min Rain = 0
KSC1 070526Z 27001KT 23/20 A3001 RMK A01 T02330198  RH  081%=      5-min Rain = 0
KSC1 070527Z 27001KT 23/20 A3001 RMK A01 T02330197  RH  080%=      5-min Rain = 0
KSC1 070528Z 28001KT 23/20 A3001 RMK A01 T02330198  RH  081%=      5-min Rain = 0
KSC1 070529Z 29001KT 23/20 A3001 RMK A01 T02330199  RH  081%=      5-min Rain = 0
KSC1 070530Z 29001KT 23/20 A3001 RMK A01 T02330200  RH  082%=      5-min Rain = 0
KSC1 070531Z 29001KT 23/20 A3001 RMK A01 T02330203  RH  083%=      5-min Rain = 0
KSC1 070532Z 29001KT 23/20 A3001 RMK A01 T02330201  RH  082%=      5-min Rain = 0
KSC1 070533Z 29002KT 23/20 A3001 RMK A01 T02320199  RH  082%=      5-min Rain = 0
KSC1 070534Z 29002KT 23/20 A3001 RMK A01 T02320201  RH  083%=      5-min Rain = 0
KSC1 070535Z 30002KT 23/20 A3001 RMK A01 T02310203  RH  084%=      5-min Rain = 0
KSC1 070536Z 30002KT 23/20 A3001 RMK A01 T02310204  RH  085%=      5-min Rain = 0
KSC1 070537Z 30002KT 23/20 A3001 RMK A01 T02310203  RH  084%=      5-min Rain = 0
KSC1 070538Z 29003KT 23/20 A3001 RMK A01 T02310202  RH  084%=      5-min Rain = 0
KSC1 070539Z 30004KT 23/20 A3001 RMK A01 T02310202  RH  083%=      5-min Rain = 0
KSC1 070540Z 30003KT 23/20 A3001 RMK A01 T02320203  RH  084%=      5-min Rain = 0
KSC1 070541Z 30002KT 23/20 A3001 RMK A01 T02320204  RH  084%=      5-min Rain = 0
KSC1 070542Z 31003KT 23/20 A3001 RMK A01 T02320202  RH  083%=      5-min Rain = 0
KSC1 070543Z 31002KT 23/20 A3001 RMK A01 T02340202  RH  082%=      5-min Rain = 0
KSC1 070544Z 30002KT 24/20 A3001 RMK A01 T02350202  RH  082%=      5-min Rain = 0
KSC1 070545Z 28001KT 24/20 A3001 RMK A01 T02360203  RH  082%=      5-min Rain = 0
KSC1 070546Z 28001KT 24/20 A3001 RMK A01 T02360203  RH  082%=      5-min Rain = 0
KSC1 070547Z 28001KT 24/20 A3001 RMK A01 T02360204  RH  082%=      5-min Rain = 0
KSC1 070548Z 28001KT 24/20 A3001 RMK A01 T02360204  RH  082%=      5-min Rain = 0
KSC1 070549Z 28001KT 24/20 A3001 RMK A01 T02350203  RH  082%=      5-min Rain = 0
KSC1 070550Z 28001KT 24/20 A3001 RMK A01 T02350204  RH  083%=      5-min Rain = 0
KSC1 070551Z 28000KT 23/20 A3001 RMK A01 T02340204  RH  083%=      5-min Rain = 0
KSC1 070552Z 28001KT 23/21 A3001 RMK A01 T02340207  RH  085%=      5-min Rain = 0
KSC1 070553Z 28000KT 23/21 A3001 RMK A01 T02340208  RH  086%=      5-min Rain = 0
KSC1 070554Z 00000KT 23/21 A3001 RMK A01 T02330209  RH  086%=      5-min Rain = 0
KSC1 070555Z 00000KT 23/21 A3001 RMK A01 T02330210  RH  087%=      5-min Rain = 0
KSC1 070556Z 00000KT 23/21 A3001 RMK A01 T02320207  RH  086%=      5-min Rain = 0
KSC1 070557Z 28000KT 23/21 A3001 RMK A01 T02310208  RH  087%=      5-min Rain = 0
KSC1 070558Z 28000KT 23/21 A3001 RMK A01 T02300211  RH  089%=      5-min Rain = 0
KSC1 070559Z 00000KT 23/21 A3001 RMK A01 T02300211  RH  089%=      5-min Rain = 0
KSC1 070600Z 00000KT 23/21 A3001 RMK A01 T02290211  RH  089%=      5-min Rain = 0
KSC1 070601Z 28000KT 23/21 A3001 RMK A01 T02290211  RH  090%=      5-min Rain = 0
KSC1 070602Z 28000KT 23/21 A3001 RMK A01 T02280210  RH  089%=      5-min Rain = 0
KSC1 070603Z 00000KT 23/21 A3001 RMK A01 T02280209  RH  089%=      5-min Rain = 0
KSC1 070604Z 28000KT 23/21 A3001 RMK A01 T02280210  RH  089%=      5-min Rain = 0
KSC1 070605Z 28001KT 23/21 A3001 RMK A01 T02280211  RH  090%=      5-min Rain = 0
KSC1 070606Z 28000KT 23/21 A3001 RMK A01 T02280213  RH  091%=      5-min Rain = 0
KSC1 070607Z 00000KT 23/21 A3001 RMK A01 T02280213  RH  091%=      5-min Rain = 0
KSC1 070608Z 00000KT 23/21 A3001 RMK A01 T02280213  RH  091%=      5-min Rain = 0
KSC1 070609Z 00000KT 23/21 A3001 RMK A01 T02280212  RH  091%=      5-min Rain = 0
KSC1 070610Z 00000KT 23/21 A3001 RMK A01 T02280214  RH  092%=      5-min Rain = 0
KSC1 070611Z 00000KT 23/22 A3001 RMK A01 T02280217  RH  093%=      5-min Rain = 0
KSC1 070612Z 00000KT 23/22 A3001 RMK A01 T02280215  RH  092%=      5-min Rain = 0
KSC1 070613Z 18000KT 23/21 A3001 RMK A01 T02280213  RH  092%=      5-min Rain = 0
KSC1 070614Z 17001KT 23/22 A3001 RMK A01 T02270216  RH  094%=      5-min Rain = 0
KSC1 070615Z 16001KT 23/22 A3001 RMK A01 T02260217  RH  095%=      5-min Rain = 0
KSC1 070616Z 16001KT 23/22 A3001 RMK A01 T02260218  RH  096%=      5-min Rain = 0
KSC1 070617Z 16001KT 23/22 A3001 RMK A01 T02250220  RH  097%=      5-min Rain = 0
KSC1 070618Z 16000KT 23/22 A3001 RMK A01 T02250221  RH  098%=      5-min Rain = 0
KSC1 070619Z 16001KT 23/22 A3001 RMK A01 T02250220  RH  097%=      5-min Rain = 0
KSC1 070620Z 16001KT 22/22 A3001 RMK A01 T02240220  RH  097%=      5-min Rain = 0
KSC1 070621Z 16001KT 22/22 A3001 RMK A01 T02240220  RH  097%=      5-min Rain = 0
KSC1 070622Z 16001KT 22/22 A3001 RMK A01 T02240219  RH  097%=      5-min Rain = 0
KSC1 070623Z 16001KT 22/22 A3001 RMK A01 T02240218  RH  096%=      5-min Rain = 0
KSC1 070624Z 16001KT 22/22 A3001 RMK A01 T02240218  RH  096%=      5-min Rain = 0
KSC1 070625Z 14001KT 22/22 A3002 RMK A01 T02240218  RH  096%=      5-min Rain = 0
KSC1 070626Z 15001KT 22/22 A3002 RMK A01 T02240218  RH  097%=      5-min Rain = 0
KSC1 070627Z 14002KT 23/22 A3002 RMK A01 T02250220  RH  097%=      5-min Rain = 0
KSC1 070628Z 11002KT 23/22 A3001 RMK A01 T02250219  RH  097%=      5-min Rain = 0
KSC1 070629Z 11002KT 23/22 A3001 RMK A01 T02250219  RH  096%=      5-min Rain = 0
KSC1 070630Z 10002KT 22/22 A3001 RMK A01 T02240218  RH  096%=      5-min Rain = 0
KSC1 070631Z 09003KT 23/22 A3001 RMK A01 T02250218  RH  096%=      5-min Rain = 0
KSC1 070632Z 09003KT 23/22 A3001 RMK A01 T02250217  RH  095%=      5-min Rain = 0
KSC1 070633Z 09003KT 23/22 A3001 RMK A01 T02250217  RH  095%=      5-min Rain = 0
KSC1 070634Z 09004KT 23/22 A3001 RMK A01 T02260219  RH  096%=      5-min Rain = 0
KSC1 070635Z 08004KT 23/22 A3001 RMK A01 T02280217  RH  093%=      5-min Rain = 0
KSC1 070636Z 08004KT 23/22 A3001 RMK A01 T02300216  RH  092%=      5-min Rain = 0
KSC1 070637Z 09003KT 23/21 A3001 RMK A01 T02320214  RH  090%=      5-min Rain = 0
KSC1 070638Z 09003KT 23/21 A3001 RMK A01 T02330212  RH  088%=      5-min Rain = 0
KSC1 070639Z 10003KT 24/21 A3001 RMK A01 T02350213  RH  087%=      5-min Rain = 0
KSC1 070640Z 10004KT 24/21 A3001 RMK A01 T02360212  RH  086%=      5-min Rain = 0
KSC1 070641Z 10004KT 24/21 A3001 RMK A01 T02370212  RH  086%=      5-min Rain = 0
KSC1 070642Z 10004KT 24/21 A3001 RMK A01 T02380211  RH  085%=      5-min Rain = 0
KSC1 070643Z 11004KT 24/21 A3001 RMK A01 T02390210  RH  084%=      5-min Rain = 0
KSC1 070644Z 11004KT 24/21 A3001 RMK A01 T02400209  RH  083%=      5-min Rain = 0
KSC1 070645Z 12003KT 24/21 A3001 RMK A01 T02410209  RH  083%=      5-min Rain = 0
KSC1 070646Z 11004KT 24/21 A3001 RMK A01 T02410209  RH  082%=      5-min Rain = 0
KSC1 070647Z 11004KT 24/21 A3001 RMK A01 T02410207  RH  081%=      5-min Rain = 0
KSC1 070648Z 10004KT 24/20 A3001 RMK A01 T02410204  RH  080%=      5-min Rain = 0
KSC1 070649Z 10004KT 24/20 A3001 RMK A01 T02420203  RH  078%=      5-min Rain = 0
KSC1 070650Z 10005KT 24/20 A3001 RMK A01 T02430202  RH  078%=      5-min Rain = 0
KSC1 070651Z 10005KT 24/20 A3001 RMK A01 T02440202  RH  077%=      5-min Rain = 0
KSC1 070652Z 09004KT 25/20 A3001 RMK A01 T02450202  RH  077%=      5-min Rain = 0
KSC1 070653Z 09004KT 25/20 A3001 RMK A01 T02460202  RH  076%=      5-min Rain = 0
KSC1 070654Z 10003KT 25/20 A3001 RMK A01 T02470202  RH  076%=      5-min Rain = 0
KSC1 070655Z 10003KT 25/20 A3001 RMK A01 T02470202  RH  076%=      5-min Rain = 0
KSC1 070656Z 11004KT 25/20 A3001 RMK A01 T02470202  RH  076%=      5-min Rain = 0
KSC1 070657Z 11004KT 25/20 A3001 RMK A01 T02470202  RH  076%=      5-min Rain = 0
KSC1 070658Z 11004KT 25/20 A3001 RMK A01 T02470202  RH  076%=      5-min Rain = 0
KSC1 070659Z 11003KT 25/20 A3001 RMK A01 T02470203  RH  076%=      5-min Rain = 0
KSC1 070700Z 12004KT 25/20 A3001 RMK A01 T02470202  RH  076%=      5-min Rain = 0
KSC1 070701Z 12003KT 25/20 A3001 RMK A01 T02470201  RH  075%=      5-min Rain = 0
KSC1 070702Z 12004KT 25/20 A3001 RMK A01 T02470200  RH  075%=      5-min Rain = 0
KSC1 070703Z 12004KT 25/20 A3001 RMK A01 T02470200  RH  075%=      5-min Rain = 0
KSC1 070704Z 13004KT 25/20 A3001 RMK A01 T02470199  RH  074%=      5-min Rain = 0
KSC1 070705Z 12004KT 25/20 A3001 RMK A01 T02480199  RH  074%=      5-min Rain = 0
KSC1 070706Z 12004KT 25/20 A3001 RMK A01 T02470199  RH  074%=      5-min Rain = 0
KSC1 070707Z 12005KT 25/20 A3001 RMK A01 T02480200  RH  075%=      5-min Rain = 0
KSC1 070708Z 12004KT 25/20 A3001 RMK A01 T02470200  RH  075%=      5-min Rain = 0
KSC1 070709Z 12004KT 25/20 A3001 RMK A01 T02480201  RH  075%=      5-min Rain = 0
KSC1 070710Z 12005KT 25/20 A3001 RMK A01 T02480200  RH  075%=      5-min Rain = 0
KSC1 070711Z 12004KT 25/20 A3001 RMK A01 T02470200  RH  075%=      5-min Rain = 0
KSC1 070712Z 12004KT 25/20 A3001 RMK A01 T02480200  RH  075%=      5-min Rain = 0
KSC1 070713Z 12004KT 25/20 A3001 RMK A01 T02470200  RH  075%=      5-min Rain = 0
KSC1 070714Z 12004KT 25/20 A3001 RMK A01 T02480201  RH  075%=      5-min Rain = 0
KSC1 070715Z 13004KT 25/20 A3001 RMK A01 T02480201  RH  075%=      5-min Rain = 0
KSC1 070716Z 13004KT 25/20 A3001 RMK A01 T02480201  RH  075%=      5-min Rain = 0
KSC1 070717Z 13004KT 25/20 A3001 RMK A01 T02480201  RH  075%=      5-min Rain = 0
KSC1 070718Z 15003KT 25/20 A3001 RMK A01 T02480202  RH  076%=      5-min Rain = 0
KSC1 070719Z 16003KT 25/20 A3001 RMK A01 T02470202  RH  076%=      5-min Rain = 0
KSC1 070720Z 16004KT 25/20 A3001 RMK A01 T02470202  RH  076%=      5-min Rain = 0
KSC1 070721Z 17004KT 25/20 A3001 RMK A01 T02470202  RH  076%=      5-min Rain = 0
KSC1 070722Z 16005KT 25/20 A3001 RMK A01 T02460202  RH  076%=      5-min Rain = 0
KSC1 070723Z 16005KT 25/20 A3001 RMK A01 T02460201  RH  076%=      5-min Rain = 0
KSC1 070724Z 15005KT 25/20 A3001 RMK A01 T02460200  RH  076%=      5-min Rain = 0
KSC1 070725Z 15004KT 25/20 A3001 RMK A01 T02460199  RH  075%=      5-min Rain = 0
KSC1 070726Z 15005KT 25/20 A3001 RMK A01 T02460197  RH  075%=      5-min Rain = 0
KSC1 070727Z 15004KT 25/20 A3001 RMK A01 T02460197  RH  074%=      5-min Rain = 0
KSC1 070728Z 15005KT 25/20 A30 RMK A01 T02460196  RH  073%=      5-min Rain = 0
KSC1 070729Z 15004KT 25/20 A30 RMK A01 T02460195  RH  073%=      5-min Rain = 0
KSC1 070730Z 15004KT 25/20 A30 RMK A01 T02460195  RH  073%=      5-min Rain = 0
KSC1 070731Z 14004KT 25/20 A30 RMK A01 T02470195  RH  073%=      5-min Rain = 0
KSC1 070732Z 13004KT 25/19 A30 RMK A01 T02460194  RH  072%=      5-min Rain = 0
KSC1 070733Z 13004KT 25/19 A30 RMK A01 T02470193  RH  072%=      5-min Rain = 0
KSC1 070734Z 12004KT 25/19 A30 RMK A01 T02460193  RH  072%=      5-min Rain = 0
KSC1 070735Z 11004KT 25/19 A30 RMK A01 T02460193  RH  072%=      5-min Rain = 0
KSC1 070736Z 12003KT 25/19 A30 RMK A01 T02460193  RH  072%=      5-min Rain = 0
KSC1 070737Z 11002KT 25/19 A30 RMK A01 T02450193  RH  073%=      5-min Rain = 0
KSC1 070738Z 11002KT 25/19 A30 RMK A01 T02450193  RH  073%=      5-min Rain = 0
KSC1 070739Z 13003KT 24/19 A30 RMK A01 T02440193  RH  073%=      5-min Rain = 0
KSC1 070740Z 14003KT 24/19 A30 RMK A01 T02440193  RH  073%=      5-min Rain = 0
KSC1 070741Z 15003KT 24/19 A30 RMK A01 T02430192  RH  073%=      5-min Rain = 0
KSC1 070742Z 15004KT 24/19 A30 RMK A01 T02430191  RH  073%=      5-min Rain = 0
KSC1 070743Z 14003KT 24/19 A30 RMK A01 T02430190  RH  072%=      5-min Rain = 0
KSC1 070744Z 14003KT 24/19 A30 RMK A01 T02420188  RH  072%=      5-min Rain = 0
KSC1 070745Z 14003KT 24/19 A30 RMK A01 T02420188  RH  072%=      5-min Rain = 0
KSC1 070746Z 13003KT 24/19 A30 RMK A01 T02420188  RH  072%=      5-min Rain = 0
KSC1 070747Z 13003KT 24/19 A30 RMK A01 T02420187  RH  072%=      5-min Rain = 0
KSC1 070748Z 13003KT 24/19 A30 RMK A01 T02420187  RH  071%=      5-min Rain = 0
KSC1 070749Z 14002KT 24/19 A30 RMK A01 T02410187  RH  072%=      5-min Rain = 0
KSC1 070750Z 13002KT 24/19 A30 RMK A01 T02400187  RH  072%=      5-min Rain = 0
KSC1 070751Z 12002KT 24/19 A30 RMK A01 T02400187  RH  072%=      5-min Rain = 0
KSC1 070752Z 12002KT 24/19 A30 RMK A01 T02390188  RH  073%=      5-min Rain = 0
KSC1 070753Z 12002KT 24/19 A30 RMK A01 T02380187  RH  073%=      5-min Rain = 0
KSC1 070754Z 12002KT 24/19 A30 RMK A01 T02370186  RH  073%=      5-min Rain = 0
KSC1 070755Z 11002KT 24/19 A30 RMK A01 T02370186  RH  073%=      5-min Rain = 0
KSC1 070756Z 11002KT 24/19 A30 RMK A01 T02370186  RH  073%=      5-min Rain = 0
KSC1 070757Z 11001KT 24/19 A30 RMK A01 T02370186  RH  073%=      5-min Rain = 0
KSC1 070758Z 10001KT 24/19 A30 RMK A01 T02370187  RH  074%=      5-min Rain = 0
KSC1 070759Z 09001KT 24/19 A30 RMK A01 T02360187  RH  074%=      5-min Rain = 0
KSC1 070800Z 09001KT 24/19 A30 RMK A01 T02360188  RH  075%=      5-min Rain = 0
KSC1 070801Z 10001KT 24/19 A30 RMK A01 T02350190  RH  076%=      5-min Rain = 0
KSC1 070802Z 10001KT 23/19 A30 RMK A01 T02340190  RH  076%=      5-min Rain = 0
KSC1 070803Z 10001KT 23/19 A30 RMK A01 T02340189  RH  076%=      5-min Rain = 0
KSC1 070804Z 10001KT 23/19 A30 RMK A01 T02330189  RH  076%=      5-min Rain = 0
KSC1 070805Z 10001KT 23/19 A30 RMK A01 T02320189  RH  077%=      5-min Rain = 0
KSC1 070806Z 10001KT 23/19 A30 RMK A01 T02310189  RH  077%=      5-min Rain = 0
KSC1 070807Z 10001KT 23/19 A30 RMK A01 T02300188  RH  077%=      5-min Rain = 0
KSC1 070808Z 10001KT 23/19 A2999 RMK A01 T02300190  RH  078%=      5-min Rain = 0
KSC1 070809Z 10001KT 23/19 A2999 RMK A01 T02290192  RH  079%=      5-min Rain = 0
KSC1 070810Z 09001KT 23/19 A2999 RMK A01 T02280188  RH  078%=      5-min Rain = 0
KSC1 070811Z 09001KT 23/19 A2999 RMK A01 T02280189  RH  079%=      5-min Rain = 0
KSC1 070812Z 09001KT 23/19 A2999 RMK A01 T02280190  RH  079%=      5-min Rain = 0
KSC1 070813Z 09001KT 23/19 A2999 RMK A01 T02270189  RH  079%=      5-min Rain = 0
KSC1 070814Z 09001KT 23/19 A2999 RMK A01 T02260187  RH  078%=      5-min Rain = 0
KSC1 070815Z 09001KT 23/19 A2999 RMK A01 T02260190  RH  080%=      5-min Rain = 0
KSC1 070816Z 09001KT 23/19 A2999 RMK A01 T02260188  RH  079%=      5-min Rain = 0
KSC1 070817Z 09001KT 23/19 A2999 RMK A01 T02250186  RH  079%=      5-min Rain = 0
KSC1 070818Z 09001KT 23/19 A2999 RMK A01 T02250187  RH  079%=      5-min Rain = 0
KSC1 070819Z 09001KT 22/19 A2999 RMK A01 T02240186  RH  079%=      5-min Rain = 0
KSC1 070820Z 09001KT 22/19 A2999 RMK A01 T02230186  RH  079%=      5-min Rain = 0
KSC1 070821Z 09001KT 22/19 A2999 RMK A01 T02220186  RH  080%=      5-min Rain = 0
KSC1 070822Z 09001KT 22/19 A2999 RMK A01 T02220188  RH  081%=      5-min Rain = 0
KSC1 070823Z 09000KT 22/19 A2999 RMK A01 T02210192  RH  084%=      5-min Rain = 0
KSC1 070824Z 34001KT 22/20 A2999 RMK A01 T02210199  RH  087%=      5-min Rain = 0
KSC1 070825Z 34001KT 22/20 A30 RMK A01 T02200199  RH  088%=      5-min Rain = 0
KSC1 070826Z 35001KT 22/20 A30 RMK A01 T02200198  RH  087%=      5-min Rain = 0
KSC1 070827Z 35000KT 22/20 A30 RMK A01 T02190195  RH  086%=      5-min Rain = 0
KSC1 070828Z 35000KT 22/20 A30 RMK A01 T02190196  RH  087%=      5-min Rain = 0
KSC1 070829Z 00000KT 22/20 A30 RMK A01 T02190196  RH  087%=      5-min Rain = 0
KSC1 070830Z 00000KT 22/20 A30 RMK A01 T02190195  RH  086%=      5-min Rain = 0
KSC1 070831Z 00000KT 22/19 A30 RMK A01 T02200193  RH  085%=      5-min Rain = 0
KSC1 070832Z 00000KT 22/20 A2999 RMK A01 T02200195  RH  086%=      5-min Rain = 0
KSC1 070833Z 00000KT 22/19 A2999 RMK A01 T02210192  RH  084%=      5-min Rain = 0
KSC1 070834Z 00000KT 22/19 A2999 RMK A01 T02210191  RH  083%=      5-min Rain = 0
KSC1 070835Z 20000KT 22/19 A2999 RMK A01 T02210192  RH  084%=      5-min Rain = 0
KSC1 070836Z 20001KT 22/19 A2999 RMK A01 T02210194  RH  085%=      5-min Rain = 0
KSC1 070837Z 20001KT 22/19 A2999 RMK A01 T02200194  RH  085%=      5-min Rain = 0
KSC1 070838Z 20000KT 22/20 A2999 RMK A01 T02190195  RH  086%=      5-min Rain = 0
KSC1 070839Z 00000KT 22/20 A2999 RMK A01 T02190197  RH  088%=      5-min Rain = 0
KSC1 070840Z 00000KT 22/20 A2999 RMK A01 T02190198  RH  088%=      5-min Rain = 0
KSC1 070841Z 20000KT 22/20 A2999 RMK A01 T02190199  RH  089%=      5-min Rain = 0
KSC1 070842Z 00000KT 22/20 A2999 RMK A01 T02180199  RH  089%=      5-min Rain = 0
KSC1 070843Z 00000KT 22/20 A2999 RMK A01 T02170198  RH  089%=      5-min Rain = 0
KSC1 070844Z 00000KT 22/20 A2999 RMK A01 T02170197  RH  088%=      5-min Rain = 0
KSC1 070845Z 00000KT 22/20 A2999 RMK A01 T02160195  RH  088%=      5-min Rain = 0
KSC1 070846Z 00000KT 22/20 A2999 RMK A01 T02150195  RH  088%=      5-min Rain = 0
KSC1 070847Z 00000KT 22/20 A30 RMK A01 T02150198  RH  090%=      5-min Rain = 0
KSC1 070848Z 00000KT 22/20 A30 RMK A01 T02150197  RH  090%=      5-min Rain = 0
KSC1 070849Z 00000KT 22/20 A30 RMK A01 T02150201  RH  092%=      5-min Rain = 0
KSC1 070850Z 00000KT 22/21 A30 RMK A01 T02150209  RH  096%=      5-min Rain = 0
KSC1 070851Z 00000KT 22/21 A30 RMK A01 T02150208  RH  096%=      5-min Rain = 0
KSC1 070852Z 00000KT 21/21 A30 RMK A01 T02140208  RH  096%=      5-min Rain = 0
KSC1 070853Z 00000KT 21/21 A30 RMK A01 T02140210  RH  097%=      5-min Rain = 0
KSC1 070854Z 00000KT 21/21 A30 RMK A01 T02130210  RH  098%=      5-min Rain = 0
KSC1 070855Z 00000KT 21/21 A30 RMK A01 T02130210  RH  098%=      5-min Rain = 0
KSC1 070856Z 24000KT 21/21 A30 RMK A01 T02130211  RH  099%=      5-min Rain = 0
KSC1 070857Z 24000KT 21/21 A30 RMK A01 T02120212  RH  100%=      5-min Rain = 0
KSC1 070858Z 24000KT 21/21 A30 RMK A01 T02120212  RH  100%=      5-min Rain = 0
KSC1 070859Z 00000KT 21/21 A30 RMK A01 T02120212  RH  100%=      5-min Rain = 0
KSC1 070900Z 00000KT 21/21 A30 RMK A01 T02120212  RH  100%=      5-min Rain = 0
KSC1 070901Z 00000KT 21/21 A2999 RMK A01 T02110209  RH  099%=      5-min Rain = 0
KSC1 070902Z 00000KT 21/21 A2999 RMK A01 T02110209  RH  099%=      5-min Rain = 0
KSC1 070903Z 24000KT 21/21 A2999 RMK A01 T02110210  RH  100%=      5-min Rain = 0
KSC1 070904Z 24001KT 21/21 A2999 RMK A01 T02100210  RH  100%=      5-min Rain = 0
KSC1 070905Z 24001KT 21/21 A2999 RMK A01 T02100210  RH  100%=      5-min Rain = 0
KSC1 070906Z 24000KT 21/21 A2999 RMK A01 T02090210  RH  100%=      5-min Rain = 0
KSC1 070907Z 24000KT 21/21 A2999 RMK A01 T02090209  RH  100%=      5-min Rain = 0
KSC1 070908Z 00000KT 21/21 A2999 RMK A01 T02080208  RH  100%=      5-min Rain = 0
KSC1 070909Z 24000KT 21/21 A2999 RMK A01 T02080208  RH  100%=      5-min Rain = 0
KSC1 070910Z 24001KT 21/21 A2999 RMK A01 T02080208  RH  100%=      5-min Rain = 0
KSC1 070911Z 24000KT 21/21 A2999 RMK A01 T02070207  RH  100%=      5-min Rain = 0
KSC1 070912Z 24001KT 21/21 A2999 RMK A01 T02070207  RH  100%=      5-min Rain = 0
KSC1 070913Z 24001KT 21/21 A2999 RMK A01 T02070207  RH  100%=      5-min Rain = 0
KSC1 070914Z 24000KT 21/21 A2999 RMK A01 T02070207  RH  100%=      5-min Rain = 0
KSC1 070915Z 00000KT 21/21 A2999 RMK A01 T02060206  RH  100%=      5-min Rain = 0
KSC1 070916Z 00000KT 21/21 A2999 RMK A01 T02060206  RH  100%=      5-min Rain = 0
KSC1 070917Z 00000KT 21/21 A2999 RMK A01 T02060206  RH  100%=      5-min Rain = 0
KSC1 070918Z 00000KT 21/21 A2999 RMK A01 T02060206  RH  100%=      5-min Rain = 0
KSC1 070919Z 00000KT 21/21 A2999 RMK A01 T02060206  RH  100%=      5-min Rain = 0
KSC1 070920Z 00000KT 21/21 A2999 RMK A01 T02060206  RH  100%=      5-min Rain = 0
KSC1 070921Z 00000KT 21/21 A2999 RMK A01 T02060206  RH  100%=      5-min Rain = 0
KSC1 070922Z 00000KT 21/21 A2999 RMK A01 T02050205  RH  100%=      5-min Rain = 0
KSC1 070923Z 00000KT 21/21 A2999 RMK A01 T02050205  RH  100%=      5-min Rain = 0
KSC1 070924Z 21000KT 21/21 A2999 RMK A01 T02050205  RH  100%=      5-min Rain = 0
KSC1 070925Z 21001KT 21/21 A2999 RMK A01 T02050205  RH  100%=      5-min Rain = 0
KSC1 070926Z 20001KT 21/21 A2999 RMK A01 T02050205  RH  100%=      5-min Rain = 0
KSC1 070927Z 20001KT 21/21 A2999 RMK A01 T02050205  RH  100%=      5-min Rain = 0
KSC1 070928Z 20002KT 20/20 A2999 RMK A01 T02040204  RH  100%=      5-min Rain = 0
KSC1 070929Z 19001KT 20/20 A2999 RMK A01 T02040204  RH  100%=      5-min Rain = 0
KSC1 070930Z 18001KT 20/20 A2999 RMK A01 T02040204  RH  100%=      5-min Rain = 0
KSC1 070931Z 18002KT 20/20 A2999 RMK A01 T02040204  RH  100%=      5-min Rain = 0
KSC1 070932Z 17002KT 20/20 A2999 RMK A01 T02040204  RH  100%=      5-min Rain = 0
KSC1 070933Z 17002KT 20/20 A2999 RMK A01 T02040204  RH  100%=      5-min Rain = 0
KSC1 070934Z 17002KT 20/20 A2999 RMK A01 T02040204  RH  100%=      5-min Rain = 0
KSC1 070935Z 17002KT 20/20 A2999 RMK A01 T02040204  RH  100%=      5-min Rain = 0
KSC1 070936Z 17002KT 20/20 A2999 RMK A01 T02030204  RH  100%=      5-min Rain = 0
KSC1 070937Z 17001KT 20/20 A2999 RMK A01 T02030204  RH  100%=      5-min Rain = 0
KSC1 070938Z 17001KT 20/20 A2999 RMK A01 T02040204  RH  100%=      5-min Rain = 0
KSC1 070939Z 17001KT 20/20 A2999 RMK A01 T02040204  RH  100%=      5-min Rain = 0
KSC1 070940Z 18001KT 20/20 A2999 RMK A01 T02040204  RH  100%=      5-min Rain = 0
KSC1 070941Z 18001KT 20/20 A2999 RMK A01 T02040204  RH  100%=      5-min Rain = 0
KSC1 070942Z 20001KT 20/20 A2999 RMK A01 T02040204  RH  100%=      5-min Rain = 0
KSC1 070943Z 22001KT 20/20 A2999 RMK A01 T02040204  RH  100%=      5-min Rain = 0
KSC1 070944Z 22001KT 20/20 A2999 RMK A01 T02030203  RH  100%=      5-min Rain = 0
KSC1 070945Z 22001KT 20/20 A2999 RMK A01 T02030204  RH  100%=      5-min Rain = 0
KSC1 070946Z 22000KT 20/20 A2999 RMK A01 T02040204  RH  100%=      5-min Rain = 0
KSC1 070947Z 00000KT 20/20 A2999 RMK A01 T02040204  RH  100%=      5-min Rain = 0
KSC1 070948Z 00000KT 20/20 A2999 RMK A01 T02040204  RH  100%=      5-min Rain = 0
KSC1 070949Z 00000KT 20/20 A2999 RMK A01 T02040204  RH  100%=      5-min Rain = 0
KSC1 070950Z 22000KT 20/20 A2999 RMK A01 T02040204  RH  100%=      5-min Rain = 0
KSC1 070951Z 22000KT 20/20 A2999 RMK A01 T02040204  RH  100%=      5-min Rain = 0
KSC1 070952Z 22000KT 20/20 A2999 RMK A01 T02040204  RH  100%=      5-min Rain = 0
KSC1 070953Z 22000KT 20/20 A2999 RMK A01 T02040204  RH  100%=      5-min Rain = 0
KSC1 070954Z 22000KT 20/20 A2999 RMK A01 T02040204  RH  100%=      5-min Rain = 0
KSC1 070955Z 00000KT 20/20 A2999 RMK A01 T02040204  RH  100%=      5-min Rain = 0
KSC1 070956Z 00000KT 20/20 A2999 RMK A01 T02030204  RH  100%=      5-min Rain = 0
KSC1 070957Z 00000KT 20/20 A2999 RMK A01 T02040204  RH  100%=      5-min Rain = 0
KSC1 070958Z 00000KT 20/20 A2999 RMK A01 T02040204  RH  100%=      5-min Rain = 0
KSC1 070959Z 00000KT 20/20 A2999 RMK A01 T02040204  RH  100%=      5-min Rain = 0
KSC1 071000Z 00000KT 20/20 A2999 RMK A01 T02040204  RH  100%=      5-min Rain = 0
KSC1 071001Z 00000KT 20/20 A2999 RMK A01 T02040204  RH  100%=      5-min Rain = 0
KSC1 071002Z 00000KT 20/21 A2999 RMK A01 T02040205  RH  100%=      5-min Rain = 0
KSC1 071003Z 00000KT 21/21 A2999 RMK A01 T02050205  RH  100%=      5-min Rain = 0
KSC1 071004Z 32000KT 21/21 A2999 RMK A01 T02050205  RH  100%=      5-min Rain = 0
KSC1 071005Z 33002KT 21/21 A2999 RMK A01 T02050205  RH  100%=      5-min Rain = 0
KSC1 071006Z 33002KT 21/21 A2999 RMK A01 T02050205  RH  100%=      5-min Rain = 0
KSC1 071007Z 33001KT 21/21 A2999 RMK A01 T02050205  RH  100%=      5-min Rain = 0
KSC1 071008Z 33002KT 21/21 A2999 RMK A01 T02050205  RH  100%=      5-min Rain = 0
KSC1 071009Z 33002KT 21/21 A2999 RMK A01 T02050205  RH  100%=      5-min Rain = 0
KSC1 071010Z 33002KT 21/21 A2999 RMK A01 T02050206  RH  100%=      5-min Rain = 0
KSC1 071011Z 34002KT 21/21 A2999 RMK A01 T02050206  RH  100%=      5-min Rain = 0
KSC1 071012Z 00001KT 21/21 A2999 RMK A01 T02060206  RH  100%=      5-min Rain = 0
KSC1 071013Z 01001KT 21/21 A2999 RMK A01 T02060206  RH  100%=      5-min Rain = 0
KSC1 071014Z 01001KT 21/21 A2999 RMK A01 T02060206  RH  100%=      5-min Rain = 0
KSC1 071015Z 02001KT 21/21 A2999 RMK A01 T02060206  RH  100%=      5-min Rain = 0
KSC1 071016Z 02001KT 21/21 A2999 RMK A01 T02050205  RH  100%=      5-min Rain = 0
KSC1 071017Z 02001KT 21/21 A2999 RMK A01 T02050205  RH  100%=      5-min Rain = 0
KSC1 071018Z 02000KT 21/21 A2999 RMK A01 T02050205  RH  100%=      5-min Rain = 0
KSC1 071019Z 00000KT 20/20 A2999 RMK A01 T02040204  RH  100%=      5-min Rain = 0
KSC1 071020Z 00000KT 20/20 A2999 RMK A01 T02040204  RH  100%=      5-min Rain = 0
KSC1 071021Z 00000KT 20/20 A2999 RMK A01 T02040204  RH  100%=      5-min Rain = 0
KSC1 071022Z 00000KT 20/20 A2999 RMK A01 T02030203  RH  100%=      5-min Rain = 0
KSC1 071023Z 00000KT 20/20 A2999 RMK A01 T02030203  RH  100%=      5-min Rain = 0
KSC1 071024Z 00000KT 20/20 A2999 RMK A01 T02020203  RH  100%=      5-min Rain = 0
KSC1 071025Z 00000KT 20/20 A2999 RMK A01 T02020202  RH  100%=      5-min Rain = 0
KSC1 071026Z 00000KT 20/20 A2999 RMK A01 T02020202  RH  100%=      5-min Rain = 0
KSC1 071027Z 00000KT 20/20 A2999 RMK A01 T02020202  RH  100%=      5-min Rain = 0
KSC1 071028Z 00000KT 20/20 A2999 RMK A01 T02020202  RH  100%=      5-min Rain = 0
KSC1 071029Z 00000KT 20/20 A2999 RMK A01 T02010201  RH  100%=      5-min Rain = 0
KSC1 071030Z 00000KT 20/20 A2999 RMK A01 T02010201  RH  100%=      5-min Rain = 0
KSC1 071031Z 00000KT 20/20 A2999 RMK A01 T02010202  RH  100%=      5-min Rain = 0
KSC1 071032Z 26000KT 20/20 A2999 RMK A01 T02010201  RH  100%=      5-min Rain = 0
KSC1 071033Z 26001KT 20/20 A2999 RMK A01 T02010201  RH  100%=      5-min Rain = 0
KSC1 071034Z 25001KT 20/20 A2999 RMK A01 T02000200  RH  100%=      5-min Rain = 0
KSC1 071035Z 25001KT 20/20 A30 RMK A01 T02000200  RH  100%=      5-min Rain = 0
KSC1 071036Z 23001KT 20/20 A30 RMK A01 T02000200  RH  100%=      5-min Rain = 0
KSC1 071037Z 23001KT 20/20 A30 RMK A01 T01990199  RH  100%=      5-min Rain = 0
KSC1 071038Z 23001KT 20/20 A30 RMK A01 T01990199  RH  100%=      5-min Rain = 0
KSC1 071039Z 23001KT 20/20 A30 RMK A01 T01990200  RH  100%=      5-min Rain = 0
KSC1 071040Z 23002KT 20/20 A30 RMK A01 T01990199  RH  100%=      5-min Rain = 0
KSC1 071041Z 23002KT 20/20 A30 RMK A01 T01990199  RH  100%=      5-min Rain = 0
KSC1 071042Z 23002KT 20/20 A30 RMK A01 T01990199  RH  100%=      5-min Rain = 0
KSC1 071043Z 23002KT 20/20 A30 RMK A01 T01990199  RH  100%=      5-min Rain = 0
KSC1 071044Z 23002KT 20/20 A30 RMK A01 T01990199  RH  100%=      5-min Rain = 0
KSC1 071045Z 24002KT 20/20 A30 RMK A01 T01990199  RH  100%=      5-min Rain = 0
KSC1 071046Z 24002KT 20/20 A30 RMK A01 T01980199  RH  100%=      5-min Rain = 0
KSC1 071047Z 25002KT 20/20 A30 RMK A01 T01980198  RH  100%=      5-min Rain = 0
KSC1 071048Z 25001KT 20/20 A30 RMK A01 T01980199  RH  100%=      5-min Rain = 0
KSC1 071049Z 24002KT 20/20 A30 RMK A01 T01980198  RH  100%=      5-min Rain = 0
KSC1 071050Z 23002KT 20/20 A30 RMK A01 T01980199  RH  100%=      5-min Rain = 0
KSC1 071051Z 23001KT 20/20 A30 RMK A01 T01980198  RH  100%=      5-min Rain = 0
KSC1 071052Z 22001KT 20/20 A30 RMK A01 T01980198  RH  100%=      5-min Rain = 0
KSC1 071053Z 21001KT 20/20 A30 RMK A01 T01990199  RH  100%=      5-min Rain = 0
KSC1 071054Z 20002KT 20/20 A30 RMK A01 T01990199  RH  100%=      5-min Rain = 0
KSC1 071055Z 19002KT 20/20 A30 RMK A01 T01990199  RH  100%=      5-min Rain = 0
KSC1 071056Z 18002KT 20/20 A30 RMK A01 T01990199  RH  100%=      5-min Rain = 0
KSC1 071057Z 18002KT 20/20 A30 RMK A01 T01990199  RH  100%=      5-min Rain = 0
KSC1 071058Z 17003KT 20/20 A30 RMK A01 T01990199  RH  100%=      5-min Rain = 0
KSC1 071059Z 17003KT 20/20 A30 RMK A01 T01990199  RH  100%=      5-min Rain = 0
KSC1 071100Z 17002KT 20/20 A30 RMK A01 T01990199  RH  100%=      5-min Rain = 0
KSC1 071101Z 17002KT 20/20 A30 RMK A01 T01990199  RH  100%=      5-min Rain = 0
KSC1 071102Z 17002KT 20/20 A30 RMK A01 T01990200  RH  100%=      5-min Rain = 0
KSC1 071103Z 17002KT 20/20 A30 RMK A01 T02000200  RH  100%=      5-min Rain = 0
KSC1 071104Z 17002KT 20/20 A30 RMK A01 T02000200  RH  100%=      5-min Rain = 0
KSC1 071105Z 17002KT 20/20 A30 RMK A01 T02000201  RH  100%=      5-min Rain = 0
KSC1 071106Z 17002KT 20/20 A30 RMK A01 T02010201  RH  100%=      5-min Rain = 0
KSC1 071107Z 17002KT 20/20 A30 RMK A01 T02010201  RH  100%=      5-min Rain = 0
KSC1 071108Z 17002KT 20/20 A30 RMK A01 T02020202  RH  100%=      5-min Rain = 0
KSC1 071109Z 18001KT 20/20 A30 RMK A01 T02020202  RH  100%=      5-min Rain = 0
KSC1 071110Z 19001KT 20/20 A30 RMK A01 T02030203  RH  100%=      5-min Rain = 0
KSC1 071111Z 19001KT 20/20 A30 RMK A01 T02030203  RH  100%=      5-min Rain = 0
KSC1 071112Z 20001KT 20/20 A30 RMK A01 T02030204  RH  100%=      5-min Rain = 0
KSC1 071113Z 20001KT 20/20 A30 RMK A01 T02030204  RH  100%=      5-min Rain = 0
KSC1 071114Z 20001KT 20/20 A30 RMK A01 T02030204  RH  100%=      5-min Rain = 0
KSC1 071115Z 20001KT 20/20 A30 RMK A01 T02040204  RH  100%=      5-min Rain = 0
KSC1 071116Z 20001KT 20/20 A30 RMK A01 T02040204  RH  100%=      5-min Rain = 0
KSC1 071117Z 20001KT 21/21 A30 RMK A01 T02050205  RH  100%=      5-min Rain = 0
KSC1 071118Z 20001KT 21/21 A30 RMK A01 T02050205  RH  100%=      5-min Rain = 0
KSC1 071119Z 20001KT 21/21 A30 RMK A01 T02050205  RH  100%=      5-min Rain = 0
KSC1 071120Z 20001KT 21/21 A30 RMK A01 T02050205  RH  100%=      5-min Rain = 0
KSC1 071121Z 20001KT 21/21 A30 RMK A01 T02050206  RH  100%=      5-min Rain = 0
KSC1 071122Z 20001KT 21/21 A30 RMK A01 T02050205  RH  100%=      5-min Rain = 0
KSC1 071123Z 20001KT 21/21 A30 RMK A01 T02050206  RH  100%=      5-min Rain = 0
KSC1 071124Z 20001KT 21/21 A30 RMK A01 T02050206  RH  100%=      5-min Rain = 0
KSC1 071125Z 20001KT 21/21 A30 RMK A01 T02060206  RH  100%=      5-min Rain = 0
KSC1 071126Z 20001KT 21/21 A30 RMK A01 T02060206  RH  100%=      5-min Rain = 0
KSC1 071127Z 19001KT 21/21 A30 RMK A01 T02060206  RH  100%=      5-min Rain = 0
KSC1 071128Z 19001KT 21/21 A30 RMK A01 T02060206  RH  100%=      5-min Rain = 0
KSC1 071129Z 19001KT 21/21 A30 RMK A01 T02060207  RH  100%=      5-min Rain = 0
KSC1 071130Z 18001KT 21/21 A30 RMK A01 T02070207  RH  100%=      5-min Rain = 0
KSC1 071131Z 18001KT 21/21 A30 RMK A01 T02070207  RH  100%=      5-min Rain = 0
KSC1 071132Z 18000KT 21/21 A30 RMK A01 T02070207  RH  100%=      5-min Rain = 0
KSC1 071133Z 18000KT 21/21 A30 RMK A01 T02060207  RH  100%=      5-min Rain = 0
KSC1 071134Z 00000KT 21/21 A3001 RMK A01 T02060207  RH  100%=      5-min Rain = 0
KSC1 071135Z 00000KT 21/21 A3001 RMK A01 T02060206  RH  100%=      5-min Rain = 0
KSC1 071136Z 00000KT 21/21 A3001 RMK A01 T02060206  RH  100%=      5-min Rain = 0
KSC1 071137Z 00000KT 21/21 A3001 RMK A01 T02060206  RH  100%=      5-min Rain = 0
KSC1 071138Z 00000KT 21/21 A3001 RMK A01 T02060206  RH  100%=      5-min Rain = 0
KSC1 071139Z 00000KT 21/21 A3001 RMK A01 T02060206  RH  100%=      5-min Rain = 0
KSC1 071140Z 00000KT 21/21 A3001 RMK A01 T02060206  RH  100%=      5-min Rain = 0
KSC1 071141Z 00000KT 21/21 A3001 RMK A01 T02060206  RH  100%=      5-min Rain = 0
KSC1 071142Z 00000KT 21/21 A3001 RMK A01 T02050206  RH  100%=      5-min Rain = 0
KSC1 071143Z 00000KT 21/21 A3001 RMK A01 T02050205  RH  100%=      5-min Rain = 0
KSC1 071144Z 22000KT 21/21 A3001 RMK A01 T02050206  RH  100%=      5-min Rain = 0
KSC1 071145Z 22000KT 21/21 A3001 RMK A01 T02050205  RH  100%=      5-min Rain = 0
KSC1 071146Z 00000KT 21/21 A3001 RMK A01 T02060206  RH  100%=      5-min Rain = 0
KSC1 071147Z 00000KT 21/21 A3001 RMK A01 T02050205  RH  100%=      5-min Rain = 0
KSC1 071148Z 00000KT 21/21 A3001 RMK A01 T02050205  RH  100%=      5-min Rain = 0
KSC1 071149Z 00000KT 21/21 A3001 RMK A01 T02050205  RH  100%=      5-min Rain = 0
KSC1 071150Z 00000KT 21/21 A3001 RMK A01 T02050205  RH  100%=      5-min Rain = 0
KSC1 071151Z 00000KT 21/21 A3001 RMK A01 T02050205  RH  100%=      5-min Rain = 0
KSC1 071152Z 00000KT 21/21 A3001 RMK A01 T02050205  RH  100%=      5-min Rain = 0
KSC1 071153Z 00000KT 21/21 A3001 RMK A01 T02050205  RH  100%=      5-min Rain = 0
KSC1 071154Z 00000KT 21/21 A3001 RMK A01 T02050205  RH  100%=      5-min Rain = 0
KSC1 071155Z 00000KT 21/21 A3001 RMK A01 T02050205  RH  100%=      5-min Rain = 0
KSC1 071156Z 00000KT 20/21 A3001 RMK A01 T02040205  RH  100%=      5-min Rain = 0
KSC1 071157Z 00000KT 21/21 A3001 RMK A01 T02050205  RH  100%=      5-min Rain = 0
KSC1 071158Z 00000KT 20/20 A3001 RMK A01 T02040204  RH  100%=      5-min Rain = 0
KSC1 071159Z 00000KT 20/20 A3001 RMK A01 T02040204  RH  100%=      5-min Rain = 0
KSC1 071200Z 00000KT 20/20 A3001 RMK A01 T02030204  RH  100%=      5-min Rain = 0
KSC1 071201Z 24000KT 20/20 A3001 RMK A01 T02030203  RH  100%=      5-min Rain = 0
KSC1 071202Z 24001KT 20/20 A3001 RMK A01 T02030203  RH  100%=      5-min Rain = 0
KSC1 071203Z 26001KT 20/20 A3001 RMK A01 T02030203  RH  100%=      5-min Rain = 0
KSC1 071204Z 27001KT 20/20 A3001 RMK A01 T02030203  RH  100%=      5-min Rain = 0
KSC1 071205Z 27002KT 20/20 A3001 RMK A01 T02020202  RH  100%=      5-min Rain = 0
KSC1 071206Z 27002KT 20/20 A3001 RMK A01 T02020202  RH  100%=      5-min Rain = 0
KSC1 071207Z 27002KT 20/20 A3001 RMK A01 T02020202  RH  100%=      5-min Rain = 0
KSC1 071208Z 26002KT 20/20 A3001 RMK A01 T02020202  RH  100%=      5-min Rain = 0
KSC1 071209Z 26002KT 20/20 A3001 RMK A01 T02020202  RH  100%=      5-min Rain = 0
KSC1 071210Z 26001KT 20/20 A3001 RMK A01 T02020202  RH  100%=      5-min Rain = 0
KSC1 071211Z 26001KT 20/20 A3001 RMK A01 T02020202  RH  100%=      5-min Rain = 0
KSC1 071212Z 25001KT 20/20 A3001 RMK A01 T02020202  RH  100%=      5-min Rain = 0
KSC1 071213Z 24001KT 20/20 A3001 RMK A01 T02020202  RH  100%=      5-min Rain = 0
KSC1 071214Z 21001KT 20/20 A3001 RMK A01 T02020202  RH  100%=      5-min Rain = 0
KSC1 071215Z 21002KT 20/20 A3001 RMK A01 T02020202  RH  100%=      5-min Rain = 0
KSC1 071216Z 21002KT 20/20 A3001 RMK A01 T02030203  RH  100%=      5-min Rain = 0
KSC1 071217Z 21002KT 20/20 A3001 RMK A01 T02030203  RH  100%=      5-min Rain = 0
KSC1 071218Z 20002KT 20/20 A3001 RMK A01 T02030204  RH  100%=      5-min Rain = 0
KSC1 071219Z 21002KT 20/20 A3001 RMK A01 T02040204  RH  100%=      5-min Rain = 0
KSC1 071220Z 21003KT 21/21 A3001 RMK A01 T02050205  RH  100%=      5-min Rain = 0
KSC1 071221Z 21003KT 21/21 A3001 RMK A01 T02050205  RH  100%=      5-min Rain = 0
KSC1 071222Z 21002KT 21/21 A3001 RMK A01 T02050205  RH  100%=      5-min Rain = 0
KSC1 071223Z 21002KT 21/21 A3001 RMK A01 T02060206  RH  100%=      5-min Rain = 0
KSC1 071224Z 21002KT 21/21 A3001 RMK A01 T02060207  RH  100%=      5-min Rain = 0
KSC1 071225Z 20003KT 21/21 A3001 RMK A01 T02070207  RH  100%=      5-min Rain = 0
KSC1 071226Z 21003KT 21/21 A3001 RMK A01 T02080209  RH  100%=      5-min Rain = 0
KSC1 071227Z 21002KT 21/21 A3001 RMK A01 T02100210  RH  100%=      5-min Rain = 0
KSC1 071228Z 21002KT 21/21 A3001 RMK A01 T02110210  RH  100%=      5-min Rain = 0
KSC1 071229Z 21002KT 21/21 A3001 RMK A01 T02120210  RH  099%=      5-min Rain = 0
KSC1 071230Z 21002KT 21/21 A3001 RMK A01 T02130211  RH  098%=      5-min Rain = 0
KSC1 071231Z 22002KT 21/21 A3001 RMK A01 T02140210  RH  098%=      5-min Rain = 0
KSC1 071232Z 22002KT 22/21 A3001 RMK A01 T02160210  RH  097%=      5-min Rain = 0
KSC1 071233Z 22002KT 22/21 A3001 RMK A01 T02170209  RH  095%=      5-min Rain = 0
KSC1 071234Z 21002KT 22/21 A3001 RMK A01 T02180209  RH  094%=      5-min Rain = 0
KSC1 071235Z 21001KT 22/21 A3001 RMK A01 T02190209  RH  094%=      5-min Rain = 0
KSC1 071236Z 22001KT 22/21 A3001 RMK A01 T02200208  RH  093%=      5-min Rain = 0
KSC1 071237Z 23001KT 22/21 A3001 RMK A01 T02210207  RH  092%=      5-min Rain = 0
KSC1 071238Z 24001KT 22/21 A3001 RMK A01 T02220208  RH  092%=      5-min Rain = 0
KSC1 071239Z 26002KT 22/21 A3001 RMK A01 T02230210  RH  092%=      5-min Rain = 0
KSC1 071240Z 27002KT 22/21 A3001 RMK A01 T02230208  RH  091%=      5-min Rain = 0
KSC1 071241Z 29002KT 22/21 A3001 RMK A01 T02240209  RH  091%=      5-min Rain = 0
KSC1 071242Z 30002KT 23/21 A3001 RMK A01 T02250208  RH  090%=      5-min Rain = 0
KSC1 071243Z 31002KT 23/21 A3001 RMK A01 T02250205  RH  088%=      5-min Rain = 0
KSC1 071244Z 31001KT 23/21 A3001 RMK A01 T02270206  RH  088%=      5-min Rain = 0
KSC1 071245Z 31000KT 23/21 A3001 RMK A01 T02280208  RH  089%=      5-min Rain = 0
KSC1 071246Z 31000KT 23/21 A3001 RMK A01 T02290209  RH  089%=      5-min Rain = 0
KSC1 071247Z 31001KT 23/21 A3001 RMK A01 T02290207  RH  087%=      5-min Rain = 0
KSC1 071248Z 31002KT 23/21 A3001 RMK A01 T02300205  RH  086%=      5-min Rain = 0
KSC1 071249Z 32001KT 23/20 A3001 RMK A01 T02300204  RH  085%=      5-min Rain = 0
KSC1 071250Z 32001KT 23/21 A3002 RMK A01 T02310206  RH  086%=      5-min Rain = 0
KSC1 071251Z 34001KT 23/21 A3002 RMK A01 T02320206  RH  085%=      5-min Rain = 0
KSC1 071252Z 33001KT 23/21 A3002 RMK A01 T02320208  RH  086%=      5-min Rain = 0
KSC1 071253Z 33001KT 23/21 A3002 RMK A01 T02330205  RH  085%=      5-min Rain = 0
KSC1 071254Z 33000KT 23/21 A3002 RMK A01 T02330205  RH  084%=      5-min Rain = 0
KSC1 071255Z 00000KT 23/21 A3002 RMK A01 T02340206  RH  084%=      5-min Rain = 0
KSC1 071256Z 00000KT 23/21 A3002 RMK A01 T02340206  RH  084%=      5-min Rain = 0
KSC1 071257Z 00000KT 24/21 A3002 RMK A01 T02350206  RH  084%=      5-min Rain = 0
KSC1 071258Z 25000KT 24/21 A3002 RMK A01 T02360208  RH  084%=      5-min Rain = 0
KSC1 071259Z 25000KT 24/21 A3002 RMK A01 T02370207  RH  084%=      5-min Rain = 0
KSC1 071300Z 00000KT 24/21 A3002 RMK A01 T02370209  RH  084%=      5-min Rain = 0
KSC1 071301Z 00000KT 24/21 A3002 RMK A01 T02390209  RH  083%=      5-min Rain = 0
KSC1 071302Z 00000KT 24/21 A3002 RMK A01 T02400207  RH  082%=      5-min Rain = 0
KSC1 071303Z 28000KT 24/21 A3002 RMK A01 T02430207  RH  081%=      5-min Rain = 0
KSC1 071304Z 33001KT 25/21 A3002 RMK A01 T02450207  RH  080%=      5-min Rain = 0
KSC1 071305Z 30001KT 25/21 A3002 RMK A01 T02450208  RH  079%=      5-min Rain = 0
KSC1 071306Z 28000KT 25/21 A3002 RMK A01 T02450209  RH  080%=      5-min Rain = 0
KSC1 071307Z 28000KT 25/21 A3002 RMK A01 T02450208  RH  080%=      5-min Rain = 0
KSC1 071308Z 30001KT 25/21 A3002 RMK A01 T02460208  RH  079%=      5-min Rain = 0
KSC1 071309Z 00000KT 25/21 A3002 RMK A01 T02480211  RH  080%=      5-min Rain = 0
KSC1 071310Z 00000KT 25/21 A3002 RMK A01 T02510212  RH  079%=      5-min Rain = 0
KSC1 071311Z 01001KT 25/21 A3002 RMK A01 T02520210  RH  077%=      5-min Rain = 0
KSC1 071312Z 02001KT 25/21 A3002 RMK A01 T02510209  RH  077%=      5-min Rain = 0
KSC1 071313Z 00001KT 25/21 A3002 RMK A01 T02510206  RH  076%=      5-min Rain = 0
KSC1 071314Z 02001KT 25/21 A3002 RMK A01 T02510207  RH  076%=      5-min Rain = 0
KSC1 071315Z 03002KT 25/21 A3002 RMK A01 T02510207  RH  076%=      5-min Rain = 0
KSC1 071316Z 03001KT 25/21 A3002 RMK A01 T02510208  RH  077%=      5-min Rain = 0
KSC1 071317Z 03002KT 25/20 A3002 RMK A01 T02510204  RH  075%=      5-min Rain = 0
KSC1 071318Z 05002KT 25/21 A3002 RMK A01 T02510205  RH  076%=      5-min Rain = 0
KSC1 071319Z 06002KT 25/21 A3002 RMK A01 T02510206  RH  076%=      5-min Rain = 0
KSC1 071320Z 06002KT 25/21 A3002 RMK A01 T02510207  RH  076%=      5-min Rain = 0
KSC1 071321Z 05002KT 25/21 A3002 RMK A01 T02510206  RH  076%=      5-min Rain = 0
KSC1 071322Z 04002KT 25/20 A3002 RMK A01 T02510204  RH  075%=      5-min Rain = 0
KSC1 071323Z 07001KT 25/20 A3002 RMK A01 T02520203  RH  074%=      5-min Rain = 0
KSC1 071324Z 07001KT 25/21 A3002 RMK A01 T02520205  RH  075%=      5-min Rain = 0
KSC1 071325Z 07001KT 25/21 A3002 RMK A01 T02540207  RH  075%=      5-min Rain = 0
KSC1 071326Z 05000KT 26/21 A3002 RMK A01 T02550208  RH  075%=      5-min Rain = 0
KSC1 071327Z 07002KT 26/21 A3002 RMK A01 T02560207  RH  074%=      5-min Rain = 0
KSC1 071328Z 07001KT 26/21 A3002 RMK A01 T02570205  RH  073%=      5-min Rain = 0
KSC1 071329Z 06002KT 26/21 A3002 RMK A01 T02570205  RH  073%=      5-min Rain = 0
KSC1 071330Z 07002KT 26/21 A3002 RMK A01 T02570205  RH  073%=      5-min Rain = 0
KSC1 071331Z 10002KT 26/20 A3002 RMK A01 T02570204  RH  073%=      5-min Rain = 0
KSC1 071332Z 10002KT 26/21 A3002 RMK A01 T02580205  RH  073%=      5-min Rain = 0
KSC1 071333Z 05002KT 26/20 A3002 RMK A01 T02580204  RH  072%=      5-min Rain = 0
KSC1 071334Z 04003KT 26/20 A3003 RMK A01 T02580204  RH  072%=      5-min Rain = 0
KSC1 071335Z 05003KT 26/21 A3003 RMK A01 T02580205  RH  072%=      5-min Rain = 0
KSC1 071336Z 05002KT 26/20 A3003 RMK A01 T02580204  RH  072%=      5-min Rain = 0
KSC1 071337Z 07002KT 26/20 A3003 RMK A01 T02580203  RH  072%=      5-min Rain = 0
KSC1 071338Z 09002KT 26/20 A3003 RMK A01 T02580203  RH  072%=      5-min Rain = 0
KSC1 071339Z 09003KT 26/20 A3003 RMK A01 T02580203  RH  072%=      5-min Rain = 0
KSC1 071340Z 09002KT 26/20 A3003 RMK A01 T02580202  RH  071%=      5-min Rain = 0
KSC1 071341Z 09003KT 26/20 A3003 RMK A01 T02580204  RH  072%=      5-min Rain = 0
KSC1 071342Z 09003KT 26/20 A3003 RMK A01 T02580203  RH  071%=      5-min Rain = 0
KSC1 071343Z 09003KT 26/20 A3003 RMK A01 T02590202  RH  071%=      5-min Rain = 0
KSC1 071344Z 09002KT 26/20 A3003 RMK A01 T02590202  RH  071%=      5-min Rain = 0
KSC1 071345Z 09002KT 26/20 A3003 RMK A01 T02590202  RH  071%=      5-min Rain = 0
KSC1 071346Z 10001KT 26/20 A3003 RMK A01 T02590203  RH  071%=      5-min Rain = 0
KSC1 071347Z 09002KT 26/20 A3003 RMK A01 T02600204  RH  071%=      5-min Rain = 0
KSC1 071348Z 08002KT 26/21 A3003 RMK A01 T02620206  RH  071%=      5-min Rain = 0
KSC1 071349Z 05003KT 26/21 A3003 RMK A01 T02640205  RH  070%=      5-min Rain = 0
KSC1 071350Z 05003KT 27/20 A3003 RMK A01 T02650203  RH  069%=      5-min Rain = 0
KSC1 071351Z 05002KT 27/20 A3003 RMK A01 T02650203  RH  069%=      5-min Rain = 0
KSC1 071352Z 04003KT 27/21 A3003 RMK A01 T02650205  RH  069%=      5-min Rain = 0
KSC1 071353Z 05004KT 27/20 A3003 RMK A01 T02660204  RH  069%=      5-min Rain = 0
KSC1 071354Z 05002KT 27/20 A3003 RMK A01 T02670201  RH  067%=      5-min Rain = 0
KSC1 071355Z 06002KT 27/20 A3003 RMK A01 T02660202  RH  068%=      5-min Rain = 0
KSC1 071356Z 03002KT 27/20 A3003 RMK A01 T02670204  RH  069%=      5-min Rain = 0
KSC1 071357Z 06003KT 27/20 A3003 RMK A01 T02680204  RH  068%=      5-min Rain = 0
KSC1 071358Z 05003KT 27/20 A3003 RMK A01 T02690203  RH  067%=      5-min Rain = 0
KSC1 071359Z 05002KT 27/20 A3003 RMK A01 T02680203  RH  067%=      5-min Rain = 0
KSC1 071400Z 05003KT 27/20 A3003 RMK A01 T02690203  RH  067%=      5-min Rain = 0
KSC1 071401Z 05003KT 27/20 A3003 RMK A01 T02690201  RH  066%=      5-min Rain = 0
KSC1 071402Z 06003KT 27/20 A3003 RMK A01 T02700202  RH  066%=      5-min Rain = 0
KSC1 071403Z 08003KT 27/20 A3003 RMK A01 T02700201  RH  066%=      5-min Rain = 0
KSC1 071404Z 05002KT 27/20 A3003 RMK A01 T02710201  RH  066%=      5-min Rain = 0
KSC1 071405Z 08002KT 27/20 A3003 RMK A01 T02720202  RH  065%=      5-min Rain = 0
KSC1 071406Z 07002KT 27/20 A3003 RMK A01 T02730202  RH  065%=      5-min Rain = 0
KSC1 071407Z 07003KT 27/20 A3003 RMK A01 T02740203  RH  065%=      5-min Rain = 0
KSC1 071408Z 07003KT 28/20 A3003 RMK A01 T02750201  RH  064%=      5-min Rain = 0
KSC1 071409Z 03001KT 28/20 A3003 RMK A01 T02750200  RH  064%=      5-min Rain = 0
KSC1 071410Z 02002KT 28/20 A3003 RMK A01 T02750201  RH  064%=      5-min Rain = 0
KSC1 071411Z 05003KT 28/20 A3003 RMK A01 T02760202  RH  064%=      5-min Rain = 0
KSC1 071412Z 04003KT 28/20 A3003 RMK A01 T02770203  RH  064%=      5-min Rain = 0
KSC1 071413Z 04002KT 28/20 A3003 RMK A01 T02770203  RH  064%=      5-min Rain = 0
KSC1 071414Z 04002KT 28/20 A3003 RMK A01 T02780203  RH  063%=      5-min Rain = 0
KSC1 071415Z 02001KT 28/20 A3003 RMK A01 T02790202  RH  063%=      5-min Rain = 0
KSC1 071416Z 05003KT 28/20 A3003 RMK A01 T02800202  RH  063%=      5-min Rain = 0
KSC1 071417Z 07003KT 28/20 A3003 RMK A01 T02800203  RH  063%=      5-min Rain = 0
KSC1 071418Z 09001KT 28/20 A3003 RMK A01 T02800203  RH  063%=      5-min Rain = 0
KSC1 071419Z 15001KT 28/21 A3003 RMK A01 T02830205  RH  063%=      5-min Rain = 0
KSC1 071420Z 10000KT 29/20 A3003 RMK A01 T02850203  RH  061%=      5-min Rain = 0
KSC1 071421Z 02001KT 29/20 A3003 RMK A01 T02860203  RH  061%=      5-min Rain = 0
KSC1 071422Z 01001KT 29/20 A3003 RMK A01 T02880203  RH  060%=      5-min Rain = 0
KSC1 071423Z 06003KT 29/20 A3003 RMK A01 T02880204  RH  060%=      5-min Rain = 0
KSC1 071424Z 06003KT 29/20 A3003 RMK A01 T02880203  RH  060%=      5-min Rain = 0
KSC1 071425Z 05003KT 29/20 A3003 RMK A01 T02870204  RH  061%=      5-min Rain = 0
KSC1 071426Z 08003KT 29/20 A3003 RMK A01 T02870204  RH  061%=      5-min Rain = 0
KSC1 071427Z 11003KT 29/20 A3003 RMK A01 T02890203  RH  060%=      5-min Rain = 0
KSC1 071428Z 13006KT 29/20 A3003 RMK A01 T02900203  RH  059%=      5-min Rain = 0
KSC1 071429Z 12006KT 29/20 A3003 RMK A01 T02900203  RH  059%=      5-min Rain = 0
KSC1 071430Z 12006KT 29/20 A3003 RMK A01 T02890203  RH  060%=      5-min Rain = 0
KSC1 071431Z 13006KT 29/20 A3003 RMK A01 T02890202  RH  059%=      5-min Rain = 0
KSC1 071432Z 14004KT 29/20 A3003 RMK A01 T02880203  RH  060%=      5-min Rain = 0
KSC1 071433Z 13004KT 29/20 A3003 RMK A01 T02860201  RH  060%=      5-min Rain = 0
KSC1 071434Z 10002KT 29/20 A3003 RMK A01 T02860201  RH  060%=      5-min Rain = 0
KSC1 071435Z 14002KT 29/20 A3003 RMK A01 T02860202  RH  061%=      5-min Rain = 0
KSC1 071436Z 12002KT 29/20 A3003 RMK A01 T02860202  RH  060%=      5-min Rain = 0
KSC1 071437Z 12006KT 29/20 A3003 RMK A01 T02880203  RH  060%=      5-min Rain = 0
KSC1 071438Z 14006KT 29/20 A3003 RMK A01 T02890204  RH  060%=      5-min Rain = 0
KSC1 071439Z 13006KT 29/20 A3003 RMK A01 T02900204  RH  060%=      5-min Rain = 0
KSC1 071440Z 14006KT 29/21 A3003 RMK A01 T02900205  RH  060%=      5-min Rain = 0
KSC1 071441Z 14006KT 29/21 A3003 RMK A01 T02900205  RH  060%=      5-min Rain = 0
KSC1 071442Z 15005KT 29/21 A3003 RMK A01 T02900205  RH  060%=      5-min Rain = 0
KSC1 071443Z 14003KT 29/20 A3003 RMK A01 T02900204  RH  060%=      5-min Rain = 0
KSC1 071444Z 13005KT 29/21 A3003 RMK A01 T02890205  RH  061%=      5-min Rain = 0
KSC1 071445Z 13004KT 29/21 A3003 RMK A01 T02900206  RH  060%=      5-min Rain = 0
KSC1 071446Z 15003KT 29/21 A3003 RMK A01 T02900205  RH  060%=      5-min Rain = 0
KSC1 071447Z 11001KT 29/21 A3003 RMK A01 T02900205  RH  060%=      5-min Rain = 0
KSC1 071448Z 12002KT 29/20 A3003 RMK A01 T02910204  RH  059%=      5-min Rain = 0
KSC1 071449Z 12005KT 29/21 A3003 RMK A01 T02920205  RH  059%=      5-min Rain = 0
KSC1 071450Z 13005KT 29/21 A3004 RMK A01 T02940205  RH  059%=      5-min Rain = 0
KSC1 071451Z 13003KT 29/21 A3004 RMK A01 T02940205  RH  058%=      5-min Rain = 0
KSC1 071452Z 12003KT 29/21 A3004 RMK A01 T02940206  RH  059%=      5-min Rain = 0
KSC1 071453Z 12003KT 30/21 A3004 RMK A01 T02960205  RH  058%=      5-min Rain = 0
KSC1 071454Z 13004KT 30/20 A3004 RMK A01 T02950204  RH  058%=      5-min Rain = 0
KSC1 071455Z 14005KT 29/21 A3003 RMK A01 T02940205  RH  059%=      5-min Rain = 0
KSC1 071456Z 14005KT 30/21 A3003 RMK A01 T02950206  RH  059%=      5-min Rain = 0
KSC1 071457Z 12005KT 30/21 A3004 RMK A01 T02960206  RH  058%=      5-min Rain = 0
KSC1 071458Z 14003KT 30/21 A3003 RMK A01 T02960205  RH  058%=      5-min Rain = 0
KSC1 071459Z 10001KT 30/21 A3003 RMK A01 T02950205  RH  058%=      5-min Rain = 0
KSC1 071500Z 15002KT 30/21 A3003 RMK A01 T02950205  RH  058%=      5-min Rain = 0
KSC1 071501Z 17003KT 30/21 A3003 RMK A01 T02960205  RH  058%=      5-min Rain = 0
KSC1 071502Z 18002KT 30/21 A3003 RMK A01 T02960206  RH  058%=      5-min Rain = 0
KSC1 071503Z 15003KT 30/21 A3003 RMK A01 T02960205  RH  058%=      5-min Rain = 0
KSC1 071504Z 11001KT 30/21 A3003 RMK A01 T02960205  RH  058%=      5-min Rain = 0
KSC1 071505Z 04002KT 30/21 A3003 RMK A01 T02950205  RH  059%=      5-min Rain = 0
KSC1 071506Z 35002KT 29/21 A3003 RMK A01 T02940206  RH  059%=      5-min Rain = 0
KSC1 071507Z 02000KT 30/21 A3003 RMK A01 T02950208  RH  059%=      5-min Rain = 0
KSC1 071508Z 34001KT 30/21 A3003 RMK A01 T02990209  RH  059%=      5-min Rain = 0
KSC1 071509Z 02002KT 30/21 A3003 RMK A01 T03020208  RH  057%=      5-min Rain = 0
KSC1 071510Z 07002KT 30/21 A3003 RMK A01 T03030207  RH  056%=      5-min Rain = 0
KSC1 071511Z 08002KT 30/21 A3003 RMK A01 T03020207  RH  057%=      5-min Rain = 0
KSC1 071512Z 07002KT 30/21 A3003 RMK A01 T03020208  RH  057%=      5-min Rain = 0
KSC1 071513Z 09002KT 30/21 A3003 RMK A01 T03020208  RH  057%=      5-min Rain = 0
KSC1 071514Z 09003KT 30/21 A3003 RMK A01 T03020209  RH  058%=      5-min Rain = 0
KSC1 071515Z 09003KT 30/21 A3003 RMK A01 T03030207  RH  057%=      5-min Rain = 0
KSC1 071516Z 10003KT 30/21 A3003 RMK A01 T03030208  RH  057%=      5-min Rain = 0
KSC1 071517Z 15004KT 30/21 A3003 RMK A01 T03020207  RH  057%=      5-min Rain = 0
KSC1 071518Z 17002KT 30/21 A3003 RMK A01 T03010207  RH  057%=      5-min Rain = 0
KSC1 071519Z 19004KT 30/21 A3003 RMK A01 T03010208  RH  058%=      5-min Rain = 0
KSC1 071520Z 21003KT 30/21 A3003 RMK A01 T03040209  RH  057%=      5-min Rain = 0
KSC1 071521Z 20004KT 31/21 A3003 RMK A01 T03050207  RH  056%=      5-min Rain = 0
KSC1 071522Z 19002KT 30/21 A3003 RMK A01 T03040207  RH  056%=      5-min Rain = 0
KSC1 071523Z 20003KT 30/21 A3003 RMK A01 T03030208  RH  057%=      5-min Rain = 0
KSC1 071524Z 26005KT 30/21 A3003 RMK A01 T03040207  RH  056%=      5-min Rain = 0
KSC1 071525Z 29005KT 30/21 A3003 RMK A01 T03040207  RH  056%=      5-min Rain = 0
KSC1 071526Z 30003KT 30/21 A3003 RMK A01 T03010206  RH  057%=      5-min Rain = 0
KSC1 071527Z 33001KT 30/21 A3003 RMK A01 T03000206  RH  057%=      5-min Rain = 0
KSC1 071528Z 07001KT 30/21 A3003 RMK A01 T02990206  RH  057%=      5-min Rain = 0
KSC1 071529Z 07001KT 30/21 A3003 RMK A01 T02990205  RH  057%=      5-min Rain = 0
KSC1 071530Z 09002KT 30/21 A3003 RMK A01 T03000205  RH  057%=      5-min Rain = 0
KSC1 071531Z 33001KT 30/21 A3003 RMK A01 T03020207  RH  057%=      5-min Rain = 0
KSC1 071532Z 32003KT 31/21 A3003 RMK A01 T03050208  RH  056%=      5-min Rain = 0
KSC1 071533Z 31003KT 31/21 A3003 RMK A01 T03070208  RH  055%=      5-min Rain = 0
KSC1 071534Z 28002KT 31/21 A3003 RMK A01 T03080209  RH  055%=      5-min Rain = 0
KSC1 071535Z 27003KT 31/21 A3003 RMK A01 T03100209  RH  055%=      5-min Rain = 0
KSC1 071536Z 24003KT 31/21 A3003 RMK A01 T03110206  RH  054%=      5-min Rain = 0
KSC1 071537Z 25004KT 31/21 A3003 RMK A01 T03100207  RH  054%=      5-min Rain = 0
KSC1 071538Z 27003KT 31/21 A3003 RMK A01 T03080206  RH  055%=      5-min Rain = 0
KSC1 071539Z 32003KT 31/21 A3003 RMK A01 T03080206  RH  055%=      5-min Rain = 0
KSC1 071540Z 31003KT 31/21 A3003 RMK A01 T03090205  RH  054%=      5-min Rain = 0
KSC1 071541Z 32003KT 31/21 A3003 RMK A01 T03070206  RH  055%=      5-min Rain = 0
KSC1 071542Z 34003KT 31/21 A3003 RMK A01 T03070207  RH  055%=      5-min Rain = 0
KSC1 071543Z 35003KT 31/21 A3003 RMK A01 T03080207  RH  055%=      5-min Rain = 0
KSC1 071544Z 01001KT 31/21 A3003 RMK A01 T03100206  RH  054%=      5-min Rain = 0
KSC1 071545Z 23001KT 31/21 A3003 RMK A01 T03090206  RH  054%=      5-min Rain = 0
KSC1 071546Z 21003KT 31/21 A3003 RMK A01 T03080206  RH  055%=      5-min Rain = 0
KSC1 071547Z 21004KT 31/21 A3003 RMK A01 T03090205  RH  054%=      5-min Rain = 0
KSC1 071548Z 21004KT 31/20 A3003 RMK A01 T03080204  RH  054%=      5-min Rain = 0
KSC1 071549Z 17003KT 31/20 A3003 RMK A01 T03070204  RH  054%=      5-min Rain = 0
KSC1 071550Z 20003KT 31/20 A3003 RMK A01 T03060203  RH  054%=      5-min Rain = 0
KSC1 071551Z 24003KT 31/20 A3003 RMK A01 T03050202  RH  054%=      5-min Rain = 0
KSC1 071552Z 25003KT 31/20 A3003 RMK A01 T03050201  RH  054%=      5-min Rain = 0
KSC1 071553Z 25006KT 31/20 A3003 RMK A01 T03050201  RH  054%=      5-min Rain = 0
KSC1 071554Z 26003KT 31/20 A3003 RMK A01 T03060201  RH  054%=      5-min Rain = 0
KSC1 071555Z 28002KT 31/20 A3003 RMK A01 T03060200  RH  053%=      5-min Rain = 0
KSC1 071556Z 25001KT 31/20 A3003 RMK A01 T03050200  RH  054%=      5-min Rain = 0
KSC1 071557Z 23001KT 30/20 A3003 RMK A01 T03030200  RH  054%=      5-min Rain = 0
KSC1 071558Z 28003KT 30/20 A3003 RMK A01 T03010200  RH  055%=      5-min Rain = 0
KSC1 071559Z 26003KT 30/20 A3003 RMK A01 T03010201  RH  055%=      5-min Rain = 0
KSC1 071600Z 25003KT 30/20 A3003 RMK A01 T03010202  RH  056%=      5-min Rain = 0
KSC1 071601Z 26003KT 30/20 A3003 RMK A01 T03010201  RH  055%=      5-min Rain = 0
KSC1 071602Z 26002KT 30/20 A3003 RMK A01 T03000201  RH  055%=      5-min Rain = 0
KSC1 071603Z 25001KT 30/20 A3003 RMK A01 T02990201  RH  056%=      5-min Rain = 0
KSC1 071604Z 21001KT 30/20 A3003 RMK A01 T02990200  RH  056%=      5-min Rain = 0
KSC1 071605Z 00000KT 30/20 A3003 RMK A01 T02990199  RH  055%=      5-min Rain = 0
KSC1 071606Z 34001KT 30/20 A3003 RMK A01 T02990200  RH  055%=      5-min Rain = 0
KSC1 071607Z 33002KT 30/20 A3003 RMK A01 T03000201  RH  056%=      5-min Rain = 0
KSC1 071608Z 34002KT 30/20 A3003 RMK A01 T03000201  RH  055%=      5-min Rain = 0
KSC1 071609Z 01002KT 30/20 A3003 RMK A01 T03000200  RH  055%=      5-min Rain = 0
KSC1 071610Z 02002KT 30/20 A3003 RMK A01 T02990202  RH  056%=      5-min Rain = 0
KSC1 071611Z 00002KT 30/20 A3003 RMK A01 T02990202  RH  056%=      5-min Rain = 0
KSC1 071612Z 02002KT 30/20 A3003 RMK A01 T02990202  RH  056%=      5-min Rain = 0
KSC1 071613Z 02002KT 30/20 A3003 RMK A01 T03000201  RH  055%=      5-min Rain = 0
KSC1 071614Z 02003KT 30/20 A3003 RMK A01 T03000201  RH  055%=      5-min Rain = 0
KSC1 071615Z 03003KT 30/20 A3003 RMK A01 T03010203  RH  056%=      5-min Rain = 0
KSC1 071616Z 04003KT 30/20 A3003 RMK A01 T03030204  RH  055%=      5-min Rain = 0
KSC1 071617Z 00003KT 31/20 A3003 RMK A01 T03050203  RH  054%=      5-min Rain = 0
KSC1 071618Z 03003KT 31/20 A3003 RMK A01 T03070202  RH  054%=      5-min Rain = 0
KSC1 071619Z 01003KT 31/20 A3003 RMK A01 T03080203  RH  053%=      5-min Rain = 0
KSC1 071620Z 03002KT 31/20 A3003 RMK A01 T03110202  RH  052%=      5-min Rain = 0
KSC1 071621Z 04002KT 31/20 A3003 RMK A01 T03120200  RH  051%=      5-min Rain = 0
KSC1 071622Z 05000KT 31/20 A3003 RMK A01 T03130199  RH  051%=      5-min Rain = 0
KSC1 071623Z 16001KT 31/20 A3002 RMK A01 T03140199  RH  051%=      5-min Rain = 0
KSC1 071624Z 10000KT 32/20 A3002 RMK A01 T03150199  RH  050%=      5-min Rain = 0
KSC1 071625Z 04000KT 32/20 A3002 RMK A01 T03160200  RH  050%=      5-min Rain = 0
KSC1 071626Z 35003KT 32/20 A3002 RMK A01 T03180201  RH  050%=      5-min Rain = 0
KSC1 071627Z 01004KT 32/20 A3003 RMK A01 T03210202  RH  049%=      5-min Rain = 0
KSC1 071628Z 35004KT 32/20 A3003 RMK A01 T03220201  RH  049%=      5-min Rain = 0
KSC1 071629Z 01003KT 32/20 A3002 RMK A01 T03220202  RH  049%=      5-min Rain = 0
KSC1 071630Z 03004KT 32/20 A3002 RMK A01 T03220202  RH  049%=      5-min Rain = 0
KSC1 071631Z 02003KT 32/20 A3003 RMK A01 T03220202  RH  049%=      5-min Rain = 0
KSC1 071632Z 04004KT 32/20 A3002 RMK A01 T03210202  RH  049%=      5-min Rain = 0
KSC1 071633Z 01004KT 32/20 A3002 RMK A01 T03200201  RH  049%=      5-min Rain = 0
KSC1 071634Z 01001KT 32/20 A3002 RMK A01 T03200201  RH  049%=      5-min Rain = 0
KSC1 071635Z 24001KT 32/20 A3002 RMK A01 T03210201  RH  049%=      5-min Rain = 0
KSC1 071636Z 23001KT 32/20 A3002 RMK A01 T03220201  RH  049%=      5-min Rain = 0
KSC1 071637Z 14001KT 32/20 A3002 RMK A01 T03230201  RH  049%=      5-min Rain = 0
KSC1 071638Z 07003KT 33/20 A3002 RMK A01 T03250202  RH  048%=      5-min Rain = 0
KSC1 071639Z 10003KT 33/20 A3002 RMK A01 T03270202  RH  048%=      5-min Rain = 0
KSC1 071640Z 05001KT 33/20 A3002 RMK A01 T03280201  RH  047%=      5-min Rain = 0
KSC1 071641Z 11003KT 33/20 A3002 RMK A01 T03280202  RH  048%=      5-min Rain = 0
KSC1 071642Z 13003KT 33/20 A3002 RMK A01 T03280202  RH  048%=      5-min Rain = 0
KSC1 071643Z 13004KT 33/20 A3002 RMK A01 T03270203  RH  048%=      5-min Rain = 0
KSC1 071644Z 13005KT 33/20 A3002 RMK A01 T03280203  RH  048%=      5-min Rain = 0
KSC1 071645Z 12006KT 33/20 A3002 RMK A01 T03290202  RH  047%=      5-min Rain = 0
KSC1 071646Z 12005KT 33/20 A3002 RMK A01 T03270201  RH  048%=      5-min Rain = 0
KSC1 071647Z 12004KT 33/20 A3002 RMK A01 T03260201  RH  048%=      5-min Rain = 0
KSC1 071648Z 14002KT 32/20 A3002 RMK A01 T03240200  RH  048%=      5-min Rain = 0
KSC1 071649Z 15001KT 32/20 A3002 RMK A01 T03240200  RH  048%=      5-min Rain = 0
KSC1 071650Z 16002KT 33/20 A3002 RMK A01 T03250201  RH  048%=      5-min Rain = 0
KSC1 071651Z 11006KT 33/20 A3002 RMK A01 T03270201  RH  048%=      5-min Rain = 0
KSC1 071652Z 11004KT 33/20 A3002 RMK A01 T03250200  RH  048%=      5-min Rain = 0
KSC1 071653Z 09003KT 32/20 A3003 RMK A01 T03230199  RH  048%=      5-min Rain = 0
KSC1 071654Z 08004KT 32/20 A3003 RMK A01 T03210199  RH  049%=      5-min Rain = 0
KSC1 071655Z 03004KT 32/20 A3003 RMK A01 T03200199  RH  049%=      5-min Rain = 0
KSC1 071656Z 02002KT 32/20 A3003 RMK A01 T03170200  RH  050%=      5-min Rain = 0
KSC1 071657Z 03002KT 32/20 A3003 RMK A01 T03150199  RH  050%=      5-min Rain = 0
KSC1 071658Z 15001KT 31/20 A3003 RMK A01 T03130199  RH  051%=      5-min Rain = 0
KSC1 071659Z 15002KT 31/20 A3003 RMK A01 T03120199  RH  051%=      5-min Rain = 0
KSC1 071700Z 13002KT 31/20 A3002 RMK A01 T03130200  RH  051%=      5-min Rain = 0
KSC1 071701Z 15002KT 32/20 A3002 RMK A01 T03150201  RH  051%=      5-min Rain = 0
KSC1 071702Z 21001KT 32/20 A3002 RMK A01 T03160200  RH  050%=      5-min Rain = 0
KSC1 071703Z 27002KT 32/20 A3002 RMK A01 T03150200  RH  050%=      5-min Rain = 0
KSC1 071704Z 25003KT 32/20 A3002 RMK A01 T03150199  RH  050%=      5-min Rain = 0
KSC1 071705Z 25002KT 32/20 A3002 RMK A01 T03150199  RH  050%=      5-min Rain = 0
KSC1 071706Z 22002KT 31/20 A3002 RMK A01 T03140199  RH  051%=      5-min Rain = 0
KSC1 071707Z 22003KT 31/20 A3002 RMK A01 T03140199  RH  050%=      5-min Rain = 0
KSC1 071708Z 22002KT 31/20 A3002 RMK A01 T03130199  RH  051%=      5-min Rain = 0
KSC1 071709Z 28001KT 31/20 A3002 RMK A01 T03130200  RH  051%=      5-min Rain = 0
KSC1 071710Z 32002KT 31/20 A3002 RMK A01 T03140201  RH  051%=      5-min Rain = 0
KSC1 071711Z 01000KT 32/20 A3002 RMK A01 T03150200  RH  050%=      5-min Rain = 0
KSC1 071712Z 34001KT 32/20 A3002 RMK A01 T03170202  RH  051%=      5-min Rain = 0
KSC1 071713Z 31003KT 32/20 A3002 RMK A01 T03210201  RH  049%=      5-min Rain = 0
KSC1 071714Z 35002KT 32/20 A3002 RMK A01 T03230202  RH  049%=      5-min Rain = 0
KSC1 071715Z 31002KT 32/20 A3002 RMK A01 T03230201  RH  049%=      5-min Rain = 0
KSC1 071716Z 35002KT 32/20 A3002 RMK A01 T03230202  RH  049%=      5-min Rain = 0
KSC1 071717Z 32002KT 32/20 A3002 RMK A01 T03230201  RH  049%=      5-min Rain = 0
KSC1 071718Z 31002KT 32/20 A3002 RMK A01 T03230202  RH  049%=      5-min Rain = 0
KSC1 071719Z 34002KT 32/20 A3002 RMK A01 T03230201  RH  049%=      5-min Rain = 0
KSC1 071720Z 32003KT 32/20 A3002 RMK A01 T03240200  RH  048%=      5-min Rain = 0
KSC1 071721Z 31002KT 32/20 A3002 RMK A01 T03220199  RH  048%=      5-min Rain = 0
KSC1 071722Z 29001KT 32/20 A3002 RMK A01 T03210200  RH  049%=      5-min Rain = 0
KSC1 071723Z 09001KT 32/20 A3002 RMK A01 T03210200  RH  049%=      5-min Rain = 0
KSC1 071724Z 13001KT 32/20 A3002 RMK A01 T03220200  RH  049%=      5-min Rain = 0
KSC1 071725Z 09003KT 32/20 A3002 RMK A01 T03230198  RH  048%=      5-min Rain = 0
KSC1 071726Z 05007KT 32/20 A3002 RMK A01 T03220197  RH  048%=      5-min Rain = 0
KSC1 071727Z 03005KT 32/20 A3002 RMK A01 T03200197  RH  048%=      5-min Rain = 0
KSC1 071728Z 04005KT 32/20 A3002 RMK A01 T03190196  RH  048%=      5-min Rain = 0
KSC1 071729Z 04006KT 32/20 A3002 RMK A01 T03190196  RH  048%=      5-min Rain = 0
KSC1 071730Z 04005KT 32/20 A3002 RMK A01 T03190197  RH  048%=      5-min Rain = 0
KSC1 071731Z 04007KT 32/20 A3002 RMK A01 T03190196  RH  048%=      5-min Rain = 0
KSC1 071732Z 01007KT 32/20 A3002 RMK A01 T03200195  RH  048%=      5-min Rain = 0
KSC1 071733Z 07003KT 32/20 A3002 RMK A01 T03200196  RH  048%=      5-min Rain = 0
KSC1 071734Z 03001KT 32/20 A3002 RMK A01 T03210195  RH  047%=      5-min Rain = 0
KSC1 071735Z 01004KT 32/20 A3002 RMK A01 T03230196  RH  047%=      5-min Rain = 0
KSC1 071736Z 00005KT 33/20 A3002 RMK A01 T03270198  RH  047%=      5-min Rain = 0
KSC1 071737Z 01005KT 33/20 A3002 RMK A01 T03300197  RH  046%=      5-min Rain = 0
KSC1 071738Z 02004KT 33/20 A3002 RMK A01 T03290197  RH  046%=      5-min Rain = 0
KSC1 071739Z 05005KT 33/20 A3002 RMK A01 T03270197  RH  046%=      5-min Rain = 0
KSC1 071740Z 05004KT 33/20 A3002 RMK A01 T03260195  RH  046%=      5-min Rain = 0
KSC1 071741Z 06003KT 33/20 A3002 RMK A01 T03270195  RH  046%=      5-min Rain = 0
KSC1 071742Z 07002KT 33/20 A3002 RMK A01 T03280196  RH  046%=      5-min Rain = 0
KSC1 071743Z 09002KT 33/20 A3002 RMK A01 T03290195  RH  045%=      5-min Rain = 0
KSC1 071744Z 09001KT 33/20 A3002 RMK A01 T03310196  RH  045%=      5-min Rain = 0
KSC1 071745Z 02002KT 33/20 A3002 RMK A01 T03320195  RH  044%=      5-min Rain = 0
KSC1 071746Z 01002KT 33/19 A3002 RMK A01 T03310194  RH  044%=      5-min Rain = 0
KSC1 071747Z 12002KT 33/19 A3002 RMK A01 T03280193  RH  045%=      5-min Rain = 0
KSC1 071748Z 07004KT 33/19 A3002 RMK A01 T03260194  RH  046%=      5-min Rain = 0
KSC1 071749Z 05003KT 33/19 A3002 RMK A01 T03250193  RH  046%=      5-min Rain = 0
KSC1 071750Z 05002KT 32/19 A3001 RMK A01 T03240194  RH  046%=      5-min Rain = 0
KSC1 071751Z 04002KT 33/19 A3001 RMK A01 T03250194  RH  046%=      5-min Rain = 0
KSC1 071752Z 07003KT 33/19 A3001 RMK A01 T03260194  RH  046%=      5-min Rain = 0
KSC1 071753Z 05001KT 33/19 A3001 RMK A01 T03280193  RH  045%=      5-min Rain = 0
KSC1 071754Z 00000KT 33/19 A3001 RMK A01 T03290192  RH  044%=      5-min Rain = 0
KSC1 071755Z 22000KT 33/19 A3001 RMK A01 T03290191  RH  044%=      5-min Rain = 0
KSC1 071756Z 23002KT 33/19 A3001 RMK A01 T03290191  RH  044%=      5-min Rain = 0
KSC1 071757Z 01003KT 33/19 A3001 RMK A01 T03280190  RH  044%=      5-min Rain = 0
KSC1 071758Z 35002KT 33/19 A3001 RMK A01 T03260190  RH  045%=      5-min Rain = 0
KSC1 071759Z 35003KT 32/19 A3001 RMK A01 T03240191  RH  045%=      5-min Rain = 0
KSC1 071800Z 01003KT 32/19 A3001 RMK A01 T03240191  RH  045%=      5-min Rain = 0
KSC1 071801Z 04002KT 32/19 A3001 RMK A01 T03240191  RH  045%=      5-min Rain = 0
KSC1 071802Z 07002KT 32/19 A3001 RMK A01 T03230190  RH  045%=      5-min Rain = 0
KSC1 071803Z 06002KT 32/19 A3001 RMK A01 T03220190  RH  046%=      5-min Rain = 0
KSC1 071804Z 10003KT 32/19 A3001 RMK A01 T03220189  RH  046%=      5-min Rain = 0
KSC1 071805Z 14003KT 32/19 A3001 RMK A01 T03210189  RH  046%=      5-min Rain = 0
KSC1 071806Z 01002KT 32/19 A3001 RMK A01 T03200190  RH  046%=      5-min Rain = 0
KSC1 071807Z 32003KT 32/18 A3001 RMK A01 T03200183  RH  044%=      5-min Rain = 0
KSC1 071808Z 31003KT 32/18 A3001 RMK A01 T03210183  RH  044%=      5-min Rain = 0
KSC1 071809Z 34005KT 32/18 A3001 RMK A01 T03230182  RH  043%=      5-min Rain = 0
KSC1 071810Z 01003KT 32/18 A3001 RMK A01 T03230181  RH  043%=      5-min Rain = 0
KSC1 071811Z 01002KT 32/18 A3001 RMK A01 T03220180  RH  043%=      5-min Rain = 0
KSC1 071812Z 32003KT 32/18 A30 RMK A01 T03210181  RH  043%=      5-min Rain = 0
KSC1 071813Z 32005KT 32/18 A30 RMK A01 T03220181  RH  043%=      5-min Rain = 0
KSC1 071814Z 32004KT 32/18 A30 RMK A01 T03230183  RH  043%=      5-min Rain = 0
KSC1 071815Z 30004KT 32/19 A30 RMK A01 T03230185  RH  044%=      5-min Rain = 0
KSC1 071816Z 32005KT 33/19 A30 RMK A01 T03250185  RH  044%=      5-min Rain = 0
KSC1 071817Z 32004KT 33/19 A30 RMK A01 T03250185  RH  044%=      5-min Rain = 0
KSC1 071818Z 33003KT 33/19 A30 RMK A01 T03260186  RH  043%=      5-min Rain = 0
KSC1 071819Z 33005KT 33/18 A30 RMK A01 T03310184  RH  042%=      5-min Rain = 0
KSC1 071820Z 34005KT 34/18 A30 RMK A01 T03350184  RH  041%=      5-min Rain = 0
KSC1 071821Z 34006KT 34/19 A30 RMK A01 T03390185  RH  040%=      5-min Rain = 0
KSC1 071822Z 34006KT 34/19 A30 RMK A01 T03400186  RH  040%=      5-min Rain = 0
KSC1 071823Z 35005KT 34/19 A30 RMK A01 T03400185  RH  040%=      5-min Rain = 0
KSC1 071824Z 35004KT 34/18 A30 RMK A01 T03380183  RH  040%=      5-min Rain = 0
KSC1 071825Z 33003KT 34/18 A30 RMK A01 T03350184  RH  041%=      5-min Rain = 0
KSC1 071826Z 32002KT 34/18 A30 RMK A01 T03350183  RH  041%=      5-min Rain = 0
KSC1 071827Z 24001KT 34/18 A30 RMK A01 T03350182  RH  040%=      5-min Rain = 0
KSC1 071828Z 35001KT 34/18 A30 RMK A01 T03350182  RH  040%=      5-min Rain = 0
KSC1 071829Z 30004KT 34/19 A30 RMK A01 T03360185  RH  041%=      5-min Rain = 0
KSC1 071830Z 28002KT 34/18 A2999 RMK A01 T03370184  RH  040%=      5-min Rain = 0
KSC1 071831Z 27003KT 34/18 A2999 RMK A01 T03370184  RH  041%=      5-min Rain = 0
KSC1 071832Z 28003KT 34/18 A2999 RMK A01 T03360184  RH  041%=      5-min Rain = 0
KSC1 071833Z 30002KT 33/18 A2999 RMK A01 T03340183  RH  041%=      5-min Rain = 0
KSC1 071834Z 10001KT 33/18 A2999 RMK A01 T03320182  RH  041%=      5-min Rain = 0
KSC1 071835Z 12003KT 33/18 A2999 RMK A01 T03300182  RH  041%=      5-min Rain = 0
KSC1 071836Z 11004KT 33/18 A2999 RMK A01 T03290181  RH  041%=      5-min Rain = 0
KSC1 071837Z 10003KT 33/18 A2999 RMK A01 T03310183  RH  041%=      5-min Rain = 0
KSC1 071838Z 04002KT 34/18 A2999 RMK A01 T03370182  RH  040%=      5-min Rain = 0
KSC1 071839Z 36004KT 34/18 A2999 RMK A01 T03400182  RH  039%=      5-min Rain = 0
KSC1 071840Z 34002KT 34/18 A2999 RMK A01 T03440179  RH  038%=      5-min Rain = 0
KSC1 071841Z 31004KT 35/18 A2999 RMK A01 T03460178  RH  037%=      5-min Rain = 0
KSC1 071842Z 01006KT 35/18 A30 RMK A01 T03470180  RH  037%=      5-min Rain = 0
KSC1 071843Z 05008KT 35/18 A30 RMK A01 T03510183  RH  037%=      5-min Rain = 0
KSC1 071844Z 06012G17KT 35/18 A3001 RMK A01 T03490184  RH  038%=      5-min Rain = 0
KSC1 071845Z 07012KT 33/18 A3001 RMK A01 T03300184  RH  042%=      5-min Rain = 0
KSC1 071846Z 08011KT 32/18 A3001 RMK A01 T03150182  RH  045%=      5-min Rain = 0
KSC1 071847Z 06014G19KT 31/18 A3001 RMK A01 T03090181  RH  047%=      5-min Rain = 0
KSC1 071848Z 07011KT 31/18 A3001 RMK A01 T03060182  RH  047%=      5-min Rain = 0
KSC1 071849Z 06014G21KT 31/18 A3001 RMK A01 T03100183  RH  047%=      5-min Rain = 0
KSC1 071850Z 06018KT 31/18 A3001 RMK A01 T03130181  RH  045%=      5-min Rain = 0
KSC1 071851Z 07014G19KT 31/18 A3001 RMK A01 T03120182  RH  046%=      5-min Rain = 0
KSC1 071852Z 07012KT 31/18 A3001 RMK A01 T03120184  RH  046%=      5-min Rain = 0
KSC1 071853Z 06012KT 31/19 A3001 RMK A01 T03120185  RH  047%=      5-min Rain = 0
KSC1 071854Z 07009G16KT 31/19 A3001 RMK A01 T03120186  RH  047%=      5-min Rain = 0
KSC1 071855Z 07015KT 31/19 A3001 RMK A01 T03130187  RH  047%=      5-min Rain = 0
KSC1 071856Z 07014KT 31/19 A3001 RMK A01 T03110187  RH  048%=      5-min Rain = 0
KSC1 071857Z 07017KT 31/19 A3001 RMK A01 T03060186  RH  049%=      5-min Rain = 0
KSC1 071858Z 09015G23KT 30/19 A3001 RMK A01 T03020188  RH  050%=      5-min Rain = 0
KSC1 071859Z 09018G24KT 30/19 A3001 RMK A01 T02990188  RH  051%=      5-min Rain = 0
KSC1 071900Z 09018KT 29/19 A3001 RMK A01 T02920187  RH  053%=      5-min Rain = 0
KSC1 071901Z 09018KT 29/19 A3001 RMK A01 T02850187  RH  055%=      5-min Rain = 0
KSC1 071902Z 09019KT 28/19 A3001 RMK A01 T02820185  RH  056%=      5-min Rain = 0
KSC1 071903Z 08015KT 28/18 A3001 RMK A01 T02800184  RH  056%=      5-min Rain = 0
KSC1 071904Z 09016G25KT 28/18 A3001 RMK A01 T02840184  RH  055%=      5-min Rain = 0
KSC1 071905Z 08015G21KT 29/18 A3001 RMK A01 T02860183  RH  054%=      5-min Rain = 0
KSC1 071906Z 08014G19KT 29/18 A3001 RMK A01 T02880183  RH  053%=      5-min Rain = 0
KSC1 071907Z 09017G22KT 29/18 A3001 RMK A01 T02900180  RH  051%=      5-min Rain = 0
KSC1 071908Z 10019G24KT 29/18 A3001 RMK A01 T02910178  RH  050%=      5-min Rain = 0
KSC1 071909Z 10018G23KT 29/18 A3001 RMK A01 T02890176  RH  050%=      5-min Rain = 0
KSC1 071910Z 10015G21KT 29/18 A3001 RMK A01 T02880179  RH  052%=      5-min Rain = 0
KSC1 071911Z 10019KT 29/18 A30 RMK A01 T02890180  RH  052%=      5-min Rain = 0
KSC1 071912Z 11018KT 29/18 A30 RMK A01 T02910177  RH  050%=      5-min Rain = 0
KSC1 071913Z 10018KT 29/18 A30 RMK A01 T02920178  RH  050%=      5-min Rain = 0
KSC1 071914Z 10017G22KT 30/18 A30 RMK A01 T02960178  RH  049%=      5-min Rain = 0
KSC1 071915Z 10015KT 30/18 A30 RMK A01 T02980176  RH  048%=      5-min Rain = 0
KSC1 071916Z 09014G19KT 30/18 A30 RMK A01 T03000176  RH  047%=      5-min Rain = 0
KSC1 071917Z 09017G22KT 30/18 A30 RMK A01 T03010175  RH  047%=      5-min Rain = 0
KSC1 071918Z 10017KT 30/18 A30 RMK A01 T03010176  RH  047%=      5-min Rain = 0
KSC1 071919Z 10016KT 30/18 A30 RMK A01 T03020176  RH  047%=      5-min Rain = 0
KSC1 071920Z 10016KT 30/18 A30 RMK A01 T03030177  RH  047%=      5-min Rain = 0
KSC1 071921Z 10014G19KT 30/18 A30 RMK A01 T03040178  RH  047%=      5-min Rain = 0
KSC1 071922Z 10015KT 31/18 A30 RMK A01 T03060177  RH  046%=      5-min Rain = 0
KSC1 071923Z 10015KT 31/18 A30 RMK A01 T03100177  RH  045%=      5-min Rain = 0
KSC1 071924Z 10015KT 31/18 A2999 RMK A01 T03120177  RH  044%=      5-min Rain = 0
KSC1 071925Z 10014G19KT 32/18 A2999 RMK A01 T03150178  RH  044%=      5-min Rain = 0
KSC1 071926Z 10014KT 32/18 A2999 RMK A01 T03170176  RH  043%=      5-min Rain = 0
KSC1 071927Z 10014KT 32/18 A2999 RMK A01 T03170177  RH  043%=      5-min Rain = 0
KSC1 071928Z 11014KT 32/18 A2999 RMK A01 T03170177  RH  043%=      5-min Rain = 0
KSC1 071929Z 11013KT 32/18 A2999 RMK A01 T03160176  RH  043%=      5-min Rain = 0
KSC1 071930Z 11013KT 32/18 A2999 RMK A01 T03160175  RH  043%=      5-min Rain = 0
KSC1 071931Z 10013KT 32/18 A2999 RMK A01 T03170175  RH  043%=      5-min Rain = 0
KSC1 071932Z 11010KT 32/17 A2999 RMK A01 T03180174  RH  042%=      5-min Rain = 0
KSC1 071933Z 10012KT 32/17 A2999 RMK A01 T03190174  RH  042%=      5-min Rain = 0
KSC1 071934Z 11012KT 32/17 A2998 RMK A01 T03210174  RH  042%=      5-min Rain = 0
KSC1 071935Z 10012KT 32/17 A2998 RMK A01 T03210171  RH  041%=      5-min Rain = 0
KSC1 071936Z 10012KT 32/17 A2998 RMK A01 T03190170  RH  041%=      5-min Rain = 0
KSC1 071937Z 08010KT 32/17 A2998 RMK A01 T03170172  RH  042%=      5-min Rain = 0
KSC1 071938Z 09012KT 32/17 A2998 RMK A01 T03170170  RH  041%=      5-min Rain = 0
KSC1 071939Z 10010KT 32/17 A2998 RMK A01 T03160169  RH  042%=      5-min Rain = 0
KSC1 071940Z 08009KT 32/17 A2998 RMK A01 T03170170  RH  041%=      5-min Rain = 0
KSC1 071941Z 09008KT 32/17 A2998 RMK A01 T03190169  RH  041%=      5-min Rain = 0
KSC1 071942Z 10011KT 32/17 A2998 RMK A01 T03210168  RH  040%=      5-min Rain = 0
KSC1 071943Z 10010KT 32/17 A2998 RMK A01 T03190166  RH  040%=      5-min Rain = 0
KSC1 071944Z 09009KT 32/17 A2998 RMK A01 T03190167  RH  040%=      5-min Rain = 0
KSC1 071945Z 08010KT 32/17 A2998 RMK A01 T03230167  RH  039%=      5-min Rain = 0
KSC1 071946Z 07007G12KT 32/17 A2998 RMK A01 T03230167  RH  039%=      5-min Rain = 0
KSC1 071947Z 09008KT 32/17 A2998 RMK A01 T03230168  RH  040%=      5-min Rain = 0
KSC1 071948Z 06008KT 33/17 A2997 RMK A01 T03250168  RH  039%=      5-min Rain = 0
KSC1 071949Z 08010KT 33/17 A2998 RMK A01 T03270169  RH  039%=      5-min Rain = 0
KSC1 071950Z 07008KT 33/17 A2998 RMK A01 T03250167  RH  039%=      5-min Rain = 0
KSC1 071951Z 08009KT 32/17 A2998 RMK A01 T03240167  RH  039%=      5-min Rain = 0
KSC1 071952Z 09009KT 33/17 A2998 RMK A01 T03250168  RH  039%=      5-min Rain = 0
KSC1 071953Z 09009KT 33/17 A2998 RMK A01 T03280169  RH  039%=      5-min Rain = 0
KSC1 071954Z 10007KT 33/17 A2998 RMK A01 T03290169  RH  038%=      5-min Rain = 0
KSC1 071955Z 08008KT 33/17 A2998 RMK A01 T03310169  RH  038%=      5-min Rain = 0
KSC1 071956Z 07007KT 33/17 A2998 RMK A01 T03330170  RH  038%=      5-min Rain = 0
KSC1 071957Z 07006KT 34/17 A2997 RMK A01 T03350172  RH  038%=      5-min Rain = 0
KSC1 071958Z 08007KT 34/17 A2997 RMK A01 T03370174  RH  038%=      5-min Rain = 0
KSC1 071959Z 07006KT 34/17 A2997 RMK A01 T03380174  RH  038%=      5-min Rain = 0
KSC1 072000Z 07007KT 34/17 A2997 RMK A01 T03380172  RH  037%=      5-min Rain = 0
KSC1 072001Z 09009KT 34/17 A2997 RMK A01 T03380173  RH  038%=      5-min Rain = 0
KSC1 072002Z 10008KT 34/17 A2997 RMK A01 T03370172  RH  037%=      5-min Rain = 0
KSC1 072003Z 10006KT 33/17 A2997 RMK A01 T03330170  RH  038%=      5-min Rain = 0
KSC1 072004Z 10008KT 33/17 A2997 RMK A01 T03310171  RH  039%=      5-min Rain = 0
KSC1 072005Z 08004G9KT 33/17 A2997 RMK A01 T03300173  RH  039%=      5-min Rain = 0
KSC1 072006Z 07007KT 33/17 A2997 RMK A01 T03320174  RH  039%=      5-min Rain = 0
KSC1 072007Z 10007KT 33/17 A2997 RMK A01 T03320173  RH  039%=      5-min Rain = 0
KSC1 072008Z 10006KT 33/17 A2997 RMK A01 T03300171  RH  039%=      5-min Rain = 0
KSC1 072009Z 07004KT 33/18 A2997 RMK A01 T03310177  RH  040%=      5-min Rain = 0
KSC1 072010Z 09008KT 33/18 A2997 RMK A01 T03340178  RH  040%=      5-min Rain = 0
KSC1 072011Z 10007KT 34/18 A2997 RMK A01 T03350177  RH  039%=      5-min Rain = 0
KSC1 072012Z 09009KT 33/17 A2997 RMK A01 T03330174  RH  039%=      5-min Rain = 0
KSC1 072013Z 11009KT 33/17 A2997 RMK A01 T03300173  RH  039%=      5-min Rain = 0
KSC1 072014Z 10009KT 33/17 A2997 RMK A01 T03280174  RH  040%=      5-min Rain = 0
KSC1 072015Z 11008KT 33/17 A2997 RMK A01 T03250174  RH  040%=      5-min Rain = 0
KSC1 072016Z 09011KT 33/17 A2997 RMK A01 T03260174  RH  040%=      5-min Rain = 0
KSC1 072017Z 09009KT 33/17 A2997 RMK A01 T03260173  RH  040%=      5-min Rain = 0
KSC1 072018Z 09009KT 33/17 A2997 RMK A01 T03260173  RH  040%=      5-min Rain = 0
KSC1 072019Z 10009KT 33/17 A2997 RMK A01 T03250172  RH  040%=      5-min Rain = 0
KSC1 072020Z 09009KT 32/17 A2996 RMK A01 T03240172  RH  040%=      5-min Rain = 0
KSC1 072021Z 10009KT 32/17 A2996 RMK A01 T03230170  RH  040%=      5-min Rain = 0
KSC1 072022Z 10008KT 32/17 A2996 RMK A01 T03200168  RH  040%=      5-min Rain = 0
KSC1 072023Z 11009KT 32/17 A2996 RMK A01 T03180169  RH  041%=      5-min Rain = 0
KSC1 072024Z 11009KT 32/17 A2996 RMK A01 T03170169  RH  041%=      5-min Rain = 0
KSC1 072025Z 11009KT 32/17 A2996 RMK A01 T03150169  RH  042%=      5-min Rain = 0
KSC1 072026Z 12007KT 31/17 A2996 RMK A01 T03140170  RH  042%=      5-min Rain = 0
KSC1 072027Z 12007KT 31/17 A2996 RMK A01 T03140170  RH  042%=      5-min Rain = 0
KSC1 072028Z 11008KT 31/17 A2996 RMK A01 T03140170  RH  042%=      5-min Rain = 0
KSC1 072029Z 11008KT 31/17 A2996 RMK A01 T03140170  RH  042%=      5-min Rain = 0
KSC1 072030Z 09006KT 32/17 A2996 RMK A01 T03150171  RH  042%=      5-min Rain = 0
KSC1 072031Z 09008KT 32/17 A2996 RMK A01 T03160172  RH  042%=      5-min Rain = 0
KSC1 072032Z 10007KT 32/17 A2996 RMK A01 T03150171  RH  042%=      5-min Rain = 0
KSC1 072033Z 10005KT 32/17 A2996 RMK A01 T03160172  RH  042%=      5-min Rain = 0
KSC1 072034Z 11007KT 32/17 A2996 RMK A01 T03180169  RH  041%=      5-min Rain = 0
KSC1 072035Z 10007KT 32/17 A2996 RMK A01 T03180169  RH  041%=      5-min Rain = 0
KSC1 072036Z 09005KT 32/17 A2996 RMK A01 T03190170  RH  041%=      5-min Rain = 0
KSC1 072037Z 09007KT 32/17 A2997 RMK A01 T03200170  RH  041%=      5-min Rain = 0
KSC1 072038Z 10009KT 32/17 A2997 RMK A01 T03200169  RH  041%=      5-min Rain = 0
KSC1 072039Z 11006KT 32/17 A2997 RMK A01 T03190171  RH  041%=      5-min Rain = 0
KSC1 072040Z 11007KT 32/17 A2997 RMK A01 T03200172  RH  041%=      5-min Rain = 0
KSC1 072041Z 11008KT 32/17 A2997 RMK A01 T03210172  RH  041%=      5-min Rain = 0
KSC1 072042Z 10010KT 32/17 A2997 RMK A01 T03220170  RH  040%=      5-min Rain = 0
KSC1 072043Z 11009KT 32/17 A2997 RMK A01 T03210169  RH  040%=      5-min Rain = 0
KSC1 072044Z 10007KT 32/17 A2997 RMK A01 T03190170  RH  041%=      5-min Rain = 0
KSC1 072045Z 10009KT 32/17 A2997 RMK A01 T03200172  RH  041%=      5-min Rain = 0
KSC1 072046Z 10009KT 32/17 A2997 RMK A01 T03220171  RH  041%=      5-min Rain = 0
KSC1 072047Z 11010KT 32/17 A2997 RMK A01 T03200171  RH  041%=      5-min Rain = 0
KSC1 072048Z 11009KT 32/17 A2997 RMK A01 T03180170  RH  041%=      5-min Rain = 0
KSC1 072049Z 10008KT 32/17 A2997 RMK A01 T03180171  RH  041%=      5-min Rain = 0
KSC1 072050Z 11008KT 32/17 A2997 RMK A01 T03190171  RH  041%=      5-min Rain = 0
KSC1 072051Z 10009KT 32/17 A2997 RMK A01 T03190172  RH  041%=      5-min Rain = 0
KSC1 072052Z 11011KT 32/17 A2997 RMK A01 T03200171  RH  041%=      5-min Rain = 0
KSC1 072053Z 11009KT 32/17 A2997 RMK A01 T03190170  RH  041%=      5-min Rain = 0
KSC1 072054Z 10009KT 32/17 A2997 RMK A01 T03180171  RH  041%=      5-min Rain = 0
KSC1 072055Z 10009KT 32/17 A2997 RMK A01 T03190170  RH  041%=      5-min Rain = 0
KSC1 072056Z 10010KT 32/17 A2997 RMK A01 T03190170  RH  041%=      5-min Rain = 0
KSC1 072057Z 10011KT 32/17 A2997 RMK A01 T03180169  RH  041%=      5-min Rain = 0
KSC1 072058Z 10008KT 32/17 A2997 RMK A01 T03160168  RH  041%=      5-min Rain = 0
KSC1 072059Z 11008KT 32/17 A2997 RMK A01 T03150169  RH  042%=      5-min Rain = 0
KSC1 072100Z 13008KT 32/17 A2997 RMK A01 T03160170  RH  042%=      5-min Rain = 0
KSC1 072101Z 13009KT 32/17 A2997 RMK A01 T03170173  RH  042%=      5-min Rain = 0
KSC1 072102Z 12010KT 32/18 A2997 RMK A01 T03150175  RH  043%=      5-min Rain = 0
KSC1 072103Z 11009KT 31/18 A2997 RMK A01 T03130178  RH  044%=      5-min Rain = 0
KSC1 072104Z 11010KT 31/18 A2997 RMK A01 T03120181  RH  046%=      5-min Rain = 0
KSC1 072105Z 13009KT 31/18 A2997 RMK A01 T03110184  RH  047%=      5-min Rain = 0
KSC1 072106Z 13008KT 31/19 A2997 RMK A01 T03110186  RH  047%=      5-min Rain = 0
KSC1 072107Z 13011KT 31/19 A2997 RMK A01 T03090185  RH  047%=      5-min Rain = 0
KSC1 072108Z 13012KT 31/18 A2997 RMK A01 T03070175  RH  045%=      5-min Rain = 0
KSC1 072109Z 13009KT 30/17 A2997 RMK A01 T03040169  RH  044%=      5-min Rain = 0
KSC1 072110Z 12010KT 30/17 A2997 RMK A01 T03030168  RH  044%=      5-min Rain = 0
KSC1 072111Z 12009KT 30/17 A2997 RMK A01 T03030169  RH  045%=      5-min Rain = 0
KSC1 072112Z 12009KT 30/17 A2996 RMK A01 T03030169  RH  045%=      5-min Rain = 0
KSC1 072113Z 13011KT 30/17 A2996 RMK A01 T03030168  RH  044%=      5-min Rain = 0
KSC1 072114Z 12009KT 30/17 A2996 RMK A01 T03030167  RH  044%=      5-min Rain = 0
KSC1 072115Z 12009KT 30/17 A2996 RMK A01 T03030167  RH  044%=      5-min Rain = 0
KSC1 072116Z 12011KT 30/17 A2996 RMK A01 T03030166  RH  044%=      5-min Rain = 0
KSC1 072117Z 12010KT 30/17 A2996 RMK A01 T03030165  RH  043%=      5-min Rain = 0
KSC1 072118Z 13010KT 30/17 A2996 RMK A01 T03040166  RH  043%=      5-min Rain = 0
KSC1 072119Z 13008KT 31/17 A2996 RMK A01 T03050167  RH  043%=      5-min Rain = 0
KSC1 072120Z 12011KT 31/17 A2996 RMK A01 T03050168  RH  044%=      5-min Rain = 0
KSC1 072121Z 12010KT 31/17 A2996 RMK A01 T03060170  RH  044%=      5-min Rain = 0
KSC1 072122Z 12012KT 31/17 A2996 RMK A01 T03050172  RH  045%=      5-min Rain = 0
KSC1 072123Z 12010KT 30/17 A2996 RMK A01 T03040174  RH  046%=      5-min Rain = 0
KSC1 072124Z 12011KT 30/18 A2996 RMK A01 T03040175  RH  046%=      5-min Rain = 0
KSC1 072125Z 12012KT 30/18 A2996 RMK A01 T03030176  RH  047%=      5-min Rain = 0
KSC1 072126Z 12011KT 30/18 A2996 RMK A01 T03010177  RH  047%=      5-min Rain = 0
KSC1 072127Z 11013KT 30/18 A2996 RMK A01 T03010178  RH  048%=      5-min Rain = 0
KSC1 072128Z 12013KT 30/18 A2996 RMK A01 T03010179  RH  048%=      5-min Rain = 0
KSC1 072129Z 12011KT 30/18 A2996 RMK A01 T03010180  RH  048%=      5-min Rain = 0
KSC1 072130Z 13009KT 30/18 A2996 RMK A01 T03010181  RH  049%=      5-min Rain = 0
KSC1 072131Z 12007KT 30/18 A2996 RMK A01 T03010182  RH  049%=      5-min Rain = 0
KSC1 072132Z 13009KT 30/18 A2996 RMK A01 T03020183  RH  049%=      5-min Rain = 0
KSC1 072133Z 12009KT 30/18 A2996 RMK A01 T03030183  RH  049%=      5-min Rain = 0
KSC1 072134Z 12010KT 30/18 A2996 RMK A01 T03040184  RH  049%=      5-min Rain = 0
KSC1 072135Z 12009KT 30/18 A2996 RMK A01 T03040184  RH  049%=      5-min Rain = 0
KSC1 072136Z 12010KT 30/18 A2996 RMK A01 T03040184  RH  049%=      5-min Rain = 0
KSC1 072137Z 12011KT 30/19 A2996 RMK A01 T03040186  RH  049%=      5-min Rain = 0
KSC1 072138Z 12012KT 30/19 A2996 RMK A01 T03030189  RH  051%=      5-min Rain = 0
KSC1 072139Z 12013KT 30/19 A2996 RMK A01 T03020191  RH  052%=      5-min Rain = 0
KSC1 072140Z 13014KT 30/19 A2996 RMK A01 T03000192  RH  052%=      5-min Rain = 0
KSC1 072141Z 12013KT 30/19 A2996 RMK A01 T02980192  RH  053%=      5-min Rain = 0
KSC1 072142Z 11015G20KT 30/19 A2996 RMK A01 T02970193  RH  053%=      5-min Rain = 0
KSC1 072143Z 12015KT 30/19 A2996 RMK A01 T02960194  RH  054%=      5-min Rain = 0
KSC1 072144Z 12014KT 29/20 A2996 RMK A01 T02940195  RH  055%=      5-min Rain = 0
KSC1 072145Z 12010KT 29/20 A2996 RMK A01 T02930196  RH  056%=      5-min Rain = 0
KSC1 072146Z 12011KT 29/20 A2996 RMK A01 T02920197  RH  056%=      5-min Rain = 0
KSC1 072147Z 11010G16KT 29/20 A2996 RMK A01 T02920197  RH  057%=      5-min Rain = 0
KSC1 072148Z 12014KT 29/20 A2996 RMK A01 T02910197  RH  057%=      5-min Rain = 0
KSC1 072149Z 12011G16KT 29/20 A2996 RMK A01 T02900196  RH  057%=      5-min Rain = 0
KSC1 072150Z 12013G18KT 29/20 A2996 RMK A01 T02890196  RH  057%=      5-min Rain = 0
KSC1 072151Z 12012KT 29/20 A2996 RMK A01 T02890195  RH  057%=      5-min Rain = 0
KSC1 072152Z 13012KT 29/20 A2996 RMK A01 T02870195  RH  057%=      5-min Rain = 0
KSC1 072153Z 13012KT 29/20 A2996 RMK A01 T02870195  RH  058%=      5-min Rain = 0
KSC1 072154Z 13012KT 29/20 A2996 RMK A01 T02870196  RH  058%=      5-min Rain = 0
KSC1 072155Z 13014KT 29/20 A2996 RMK A01 T02860196  RH  058%=      5-min Rain = 0
KSC1 072156Z 13009G14KT 29/20 A2996 RMK A01 T02850196  RH  059%=      5-min Rain = 0
KSC1 072157Z 15009KT 29/20 A2996 RMK A01 T02850197  RH  059%=      5-min Rain = 0
KSC1 072158Z 14009KT 29/20 A2996 RMK A01 T02860198  RH  059%=      5-min Rain = 0
KSC1 072159Z 14010G15KT 29/20 A2996 RMK A01 T02860198  RH  059%=      5-min Rain = 0
KSC1 072200Z 14010KT 29/20 A2996 RMK A01 T02850197  RH  059%=      5-min Rain = 0
KSC1 072201Z 13009KT 28/20 A2996 RMK A01 T02840197  RH  059%=      5-min Rain = 0
KSC1 072202Z 13007KT 28/20 A2996 RMK A01 T02830198  RH  060%=      5-min Rain = 0
KSC1 072203Z 14011KT 28/20 A2996 RMK A01 T02830198  RH  060%=      5-min Rain = 0
KSC1 072204Z 14010KT 28/20 A2996 RMK A01 T02830199  RH  060%=      5-min Rain = 0
KSC1 072205Z 14011KT 28/20 A2996 RMK A01 T02820198  RH  060%=      5-min Rain = 0
KSC1 072206Z 14010KT 28/20 A2996 RMK A01 T02810197  RH  060%=      5-min Rain = 0
KSC1 072207Z 14010KT 28/20 A2996 RMK A01 T02810197  RH  060%=      5-min Rain = 0
KSC1 072208Z 14012G17KT 28/20 A2996 RMK A01 T02810197  RH  060%=      5-min Rain = 0
KSC1 072209Z 14012KT 28/20 A2996 RMK A01 T02800197  RH  060%=      5-min Rain = 0
KSC1 072210Z 15010KT 28/20 A2996 RMK A01 T02790197  RH  061%=      5-min Rain = 0
KSC1 072211Z 15010KT 28/20 A2996 RMK A01 T02790197  RH  061%=      5-min Rain = 0
KSC1 072212Z 15012KT 28/20 A2995 RMK A01 T02790196  RH  061%=      5-min Rain = 0
KSC1 072213Z 15012KT 28/20 A2996 RMK A01 T02790195  RH  060%=      5-min Rain = 0
KSC1 072214Z 14012KT 28/19 A2996 RMK A01 T02780194  RH  060%=      5-min Rain = 0
KSC1 072215Z 15009KT 28/19 A2996 RMK A01 T02770194  RH  061%=      5-min Rain = 0
KSC1 072216Z 14007G13KT 28/20 A2996 RMK A01 T02770195  RH  061%=      5-min Rain = 0
KSC1 072217Z 14006KT 28/20 A2996 RMK A01 T02780195  RH  061%=      5-min Rain = 0
KSC1 072218Z 16011KT 28/20 A2996 RMK A01 T02800195  RH  060%=      5-min Rain = 0
KSC1 072219Z 15011KT 28/19 A2995 RMK A01 T02790193  RH  060%=      5-min Rain = 0
KSC1 072220Z 16010G15KT 28/19 A2995 RMK A01 T02780193  RH  060%=      5-min Rain = 0
KSC1 072221Z 15011KT 28/19 A2995 RMK A01 T02760192  RH  060%=      5-min Rain = 0
KSC1 072222Z 14011KT 28/19 A2995 RMK A01 T02750193  RH  061%=      5-min Rain = 0
KSC1 072223Z 14010KT 28/19 A2995 RMK A01 T02750193  RH  061%=      5-min Rain = 0
KSC1 072224Z 14008KT 28/19 A2995 RMK A01 T02750193  RH  061%=      5-min Rain = 0
KSC1 072225Z 13010KT 28/19 A2995 RMK A01 T02750192  RH  061%=      5-min Rain = 0
KSC1 072226Z 13008KT 28/19 A2995 RMK A01 T02760192  RH  060%=      5-min Rain = 0
KSC1 072227Z 14007KT 28/19 A2995 RMK A01 T02760192  RH  060%=      5-min Rain = 0
KSC1 072228Z 14010KT 28/19 A2995 RMK A01 T02770192  RH  060%=      5-min Rain = 0
KSC1 072229Z 13009KT 28/19 A2995 RMK A01 T02780192  RH  059%=      5-min Rain = 0
KSC1 072230Z 14013KT 28/19 A2995 RMK A01 T02780191  RH  059%=      5-min Rain = 0
KSC1 072231Z 14011KT 28/19 A2995 RMK A01 T02780192  RH  060%=      5-min Rain = 0
KSC1 072232Z 13011KT 28/19 A2995 RMK A01 T02770192  RH  060%=      5-min Rain = 0
KSC1 072233Z 13012KT 28/19 A2995 RMK A01 T02780192  RH  059%=      5-min Rain = 0
KSC1 072234Z 13010KT 28/19 A2994 RMK A01 T02780192  RH  060%=      5-min Rain = 0
KSC1 072235Z 13012KT 28/19 A2994 RMK A01 T02770192  RH  060%=      5-min Rain = 0
KSC1 072236Z 13010KT 28/19 A2994 RMK A01 T02770191  RH  059%=      5-min Rain = 0
KSC1 072237Z 14008KT 28/19 A2994 RMK A01 T02780191  RH  059%=      5-min Rain = 0
KSC1 072238Z 14009KT 28/19 A2994 RMK A01 T02790190  RH  059%=      5-min Rain = 0
KSC1 072239Z 14010KT 28/19 A2994 RMK A01 T02790191  RH  059%=      5-min Rain = 0
KSC1 072240Z 14009KT 28/19 A2994 RMK A01 T02800191  RH  059%=      5-min Rain = 0
KSC1 072241Z 14010KT 28/19 A2994 RMK A01 T02800191  RH  059%=      5-min Rain = 0
KSC1 072242Z 14009KT 28/19 A2994 RMK A01 T02800190  RH  058%=      5-min Rain = 0
KSC1 072243Z 14009G14KT 28/19 A2994 RMK A01 T02800190  RH  058%=      5-min Rain = 0
KSC1 072244Z 14010KT 28/19 A2994 RMK A01 T02800190  RH  058%=      5-min Rain = 0
KSC1 072245Z 13010KT 28/19 A2994 RMK A01 T02810190  RH  058%=      5-min Rain = 0
KSC1 072246Z 14009KT 28/19 A2994 RMK A01 T02810191  RH  058%=      5-min Rain = 0
KSC1 072247Z 14010KT 28/19 A2994 RMK A01 T02820192  RH  058%=      5-min Rain = 0
KSC1 072248Z 14009KT 28/19 A2994 RMK A01 T02820192  RH  058%=      5-min Rain = 0
KSC1 072249Z 15008G13KT 28/19 A2994 RMK A01 T02830193  RH  058%=      5-min Rain = 0
KSC1 072250Z 15011KT 28/19 A2994 RMK A01 T02840194  RH  058%=      5-min Rain = 0
KSC1 072251Z 15009KT 28/19 A2994 RMK A01 T02830194  RH  059%=      5-min Rain = 0
KSC1 072252Z 15011KT 28/19 A2994 RMK A01 T02830194  RH  058%=      5-min Rain = 0
KSC1 072253Z 15012KT 28/19 A2994 RMK A01 T02830194  RH  058%=      5-min Rain = 0
KSC1 072254Z 15011KT 28/19 A2994 RMK A01 T02820193  RH  058%=      5-min Rain = 0
KSC1 072255Z 15010KT 28/19 A2994 RMK A01 T02810193  RH  059%=      5-min Rain = 0
KSC1 072256Z 15011KT 28/19 A2994 RMK A01 T02810193  RH  059%=      5-min Rain = 0
KSC1 072257Z 16007KT 28/19 A2994 RMK A01 T02810193  RH  059%=      5-min Rain = 0
KSC1 072258Z 17010KT 28/19 A2994 RMK A01 T02810192  RH  058%=      5-min Rain = 0
KSC1 072259Z 15010KT 28/19 A2994 RMK A01 T02810190  RH  058%=      5-min Rain = 0
KSC1 072300Z 16011G16KT 28/19 A2994 RMK A01 T02810189  RH  057%=      5-min Rain = 0
KSC1 072301Z 16012KT 28/19 A2994 RMK A01 T02820187  RH  057%=      5-min Rain = 0
KSC1 072302Z 15011G16KT 28/19 A2994 RMK A01 T02810187  RH  057%=      5-min Rain = 0
KSC1 072303Z 16010G15KT 28/19 A2994 RMK A01 T02820187  RH  056%=      5-min Rain = 0
KSC1 072304Z 15010KT 28/19 A2994 RMK A01 T02820186  RH  056%=      5-min Rain = 0
KSC1 072305Z 15010KT 28/19 A2994 RMK A01 T02830186  RH  055%=      5-min Rain = 0
KSC1 072306Z 16010KT 28/19 A2993 RMK A01 T02830185  RH  055%=      5-min Rain = 0
KSC1 072307Z 15009KT 28/19 A2993 RMK A01 T02830186  RH  055%=      5-min Rain = 0
KSC1 072308Z 16008KT 28/19 A2993 RMK A01 T02840185  RH  055%=      5-min Rain = 0
KSC1 072309Z 16007KT 29/19 A2994 RMK A01 T02850185  RH  055%=      5-min Rain = 0
KSC1 072310Z 17012KT 29/18 A2994 RMK A01 T02860183  RH  054%=      5-min Rain = 0
KSC1 072311Z 16009G15KT 29/18 A2994 RMK A01 T02860182  RH  053%=      5-min Rain = 0
KSC1 072312Z 15012KT 29/18 A2994 RMK A01 T02850182  RH  053%=      5-min Rain = 0
KSC1 072313Z 16009KT 28/18 A2994 RMK A01 T02840182  RH  054%=      5-min Rain = 0
KSC1 072314Z 16010KT 29/18 A2994 RMK A01 T02850182  RH  054%=      5-min Rain = 0
KSC1 072315Z 15008KT 29/18 A2994 RMK A01 T02860181  RH  053%=      5-min Rain = 0
KSC1 072316Z 15006KT 29/18 A2994 RMK A01 T02860182  RH  053%=      5-min Rain = 0
KSC1 072317Z 17007KT 29/18 A2994 RMK A01 T02870183  RH  053%=      5-min Rain = 0
KSC1 072318Z 17007KT 29/18 A2994 RMK A01 T02880183  RH  053%=      5-min Rain = 0
KSC1 072319Z 16007KT 29/18 A2994 RMK A01 T02890183  RH  053%=      5-min Rain = 0
KSC1 072320Z 17007KT 29/18 A2994 RMK A01 T02890182  RH  052%=      5-min Rain = 0
KSC1 072321Z 17007KT 29/18 A2994 RMK A01 T02890182  RH  052%=      5-min Rain = 0
KSC1 072322Z 16007KT 29/18 A2994 RMK A01 T02890183  RH  053%=      5-min Rain = 0
KSC1 072323Z 16007KT 29/18 A2994 RMK A01 T02890182  RH  052%=      5-min Rain = 0
KSC1 072324Z 15007KT 29/18 A2994 RMK A01 T02890182  RH  052%=      5-min Rain = 0
KSC1 072325Z 15005KT 29/18 A2994 RMK A01 T02890182  RH  052%=      5-min Rain = 0
KSC1 072326Z 15007KT 29/18 A2994 RMK A01 T02890181  RH  052%=      5-min Rain = 0
KSC1 072327Z 15009KT 29/18 A2994 RMK A01 T02890180  RH  052%=      5-min Rain = 0
KSC1 072328Z 15008KT 29/18 A2994 RMK A01 T02870180  RH  052%=      5-min Rain = 0
KSC1 072329Z 14009KT 29/18 A2994 RMK A01 T02870181  RH  053%=      5-min Rain = 0
KSC1 072330Z 15007KT 29/18 A2994 RMK A01 T02870181  RH  053%=      5-min Rain = 0
KSC1 072331Z 14005KT 29/18 A2994 RMK A01 T02870182  RH  053%=      5-min Rain = 0
KSC1 072332Z 15007KT 29/18 A2994 RMK A01 T02880182  RH  053%=      5-min Rain = 0
KSC1 072333Z 15006KT 29/18 A2994 RMK A01 T02880182  RH  053%=      5-min Rain = 0
KSC1 072334Z 13005KT 29/18 A2994 RMK A01 T02880182  RH  053%=      5-min Rain = 0
KSC1 072335Z 14004KT 29/18 A2994 RMK A01 T02860181  RH  053%=      5-min Rain = 0
KSC1 072336Z 15005KT 29/18 A2994 RMK A01 T02850182  RH  053%=      5-min Rain = 0
KSC1 072337Z 12004KT 29/18 A2994 RMK A01 T02850182  RH  053%=      5-min Rain = 0
KSC1 072338Z 15006KT 29/18 A2994 RMK A01 T02860182  RH  053%=      5-min Rain = 0
KSC1 072339Z 16004KT 29/18 A2994 RMK A01 T02870182  RH  053%=      5-min Rain = 0
KSC1 072340Z 15004KT 29/18 A2994 RMK A01 T02880182  RH  053%=      5-min Rain = 0
KSC1 072341Z 13005G10KT 29/18 A2994 RMK A01 T02880182  RH  053%=      5-min Rain = 0
KSC1 072342Z 16007KT 29/18 A2994 RMK A01 T02880182  RH  053%=      5-min Rain = 0
KSC1 072343Z 15006KT 29/18 A2994 RMK A01 T02870182  RH  053%=      5-min Rain = 0
KSC1 072344Z 15006KT 29/18 A2994 RMK A01 T02880182  RH  053%=      5-min Rain = 0
KSC1 072345Z 14004KT 29/18 A2994 RMK A01 T02880182  RH  053%=      5-min Rain = 0
KSC1 072346Z 14005KT 29/18 A2994 RMK A01 T02880182  RH  053%=      5-min Rain = 0
KSC1 072347Z 14004KT 29/18 A2994 RMK A01 T02890183  RH  053%=      5-min Rain = 0
KSC1 072348Z 12004KT 29/18 A2994 RMK A01 T02900183  RH  052%=      5-min Rain = 0
KSC1 072349Z 12006KT 29/18 A2994 RMK A01 T02910182  RH  052%=      5-min Rain = 0
KSC1 072350Z 13007KT 29/18 A2994 RMK A01 T02910182  RH  052%=      5-min Rain = 0
KSC1 072351Z 14006KT 29/18 A2994 RMK A01 T02900181  RH  052%=      5-min Rain = 0
KSC1 072352Z 13007KT 29/18 A2994 RMK A01 T02890182  RH  052%=      5-min Rain = 0
KSC1 072353Z 13005KT 29/18 A2994 RMK A01 T02890182  RH  052%=      5-min Rain = 0
KSC1 072354Z 14006KT 29/18 A2994 RMK A01 T02890182  RH  052%=      5-min Rain = 0
KSC1 072355Z 15004KT 29/18 A2994 RMK A01 T02890182  RH  052%=      5-min Rain = 0
KSC1 072356Z 13005KT 29/18 A2994 RMK A01 T02890182  RH  053%=      5-min Rain = 0
KSC1 072357Z 12005KT 29/18 A2994 RMK A01 T02890183  RH  053%=      5-min Rain = 0
KSC1 072358Z 11006KT 29/18 A2994 RMK A01 T02900183  RH  053%=      5-min Rain = 0
KSC1 072359Z 11007KT 29/18 A2994 RMK A01 T02900182  RH  052%=      5-min Rain = 0
KSC1 080000Z 14007KT 29/18 A2994 RMK A01 T02910183  RH  052%=      5-min Rain = 0
KSC1 080001Z 14006KT 29/18 A2994 RMK A01 T02910182  RH  052%=      5-min Rain = 0
KSC1 080002Z 12007KT 29/18 A2994 RMK A01 T02900182  RH  052%=      5-min Rain = 0
KSC1 080003Z 12006KT 29/18 A2994 RMK A01 T02900181  RH  052%=      5-min Rain = 0
KSC1 080004Z 11006KT 29/18 A2995 RMK A01 T02890181  RH  052%=      5-min Rain = 0
KSC1 080005Z 12007KT 29/18 A2995 RMK A01 T02890182  RH  052%=      5-min Rain = 0
KSC1 080006Z 13006KT 29/18 A2995 RMK A01 T02890180  RH  052%=      5-min Rain = 0
KSC1 080007Z 13007KT 29/18 A2995 RMK A01 T02890180  RH  052%=      5-min Rain = 0
KSC1 080008Z 14007KT 29/18 A2995 RMK A01 T02890178  RH  051%=      5-min Rain = 0
KSC1 080009Z 13007KT 29/18 A2995 RMK A01 T02880178  RH  051%=      5-min Rain = 0
KSC1 080010Z 13006KT 29/18 A2995 RMK A01 T02870179  RH  052%=      5-min Rain = 0
KSC1 080011Z 13008KT 29/18 A2995 RMK A01 T02870179  RH  052%=      5-min Rain = 0
KSC1 080012Z 13006KT 29/18 A2995 RMK A01 T02870178  RH  052%=      5-min Rain = 0
KSC1 080013Z 13006KT 29/18 A2995 RMK A01 T02860179  RH  052%=      5-min Rain = 0
KSC1 080014Z 16007KT 29/18 A2995 RMK A01 T02870179  RH  052%=      5-min Rain = 0
KSC1 080015Z 14005KT 29/18 A2995 RMK A01 T02880179  RH  052%=      5-min Rain = 0
KSC1 080016Z 12007KT 29/18 A2995 RMK A01 T02890180  RH  052%=      5-min Rain = 0
KSC1 080017Z 12009KT 29/18 A2995 RMK A01 T02900181  RH  052%=      5-min Rain = 0
KSC1 080018Z 12008KT 29/18 A2995 RMK A01 T02890181  RH  052%=      5-min Rain = 0
KSC1 080019Z 11008KT 29/18 A2995 RMK A01 T02880181  RH  052%=      5-min Rain = 0
KSC1 080020Z 13006KT 29/18 A2995 RMK A01 T02870181  RH  053%=      5-min Rain = 0
KSC1 080021Z 12006KT 29/18 A2995 RMK A01 T02860181  RH  053%=      5-min Rain = 0
KSC1 080022Z 11008KT 29/18 A2995 RMK A01 T02860181  RH  053%=      5-min Rain = 0
KSC1 080023Z 11008KT 29/18 A2995 RMK A01 T02860181  RH  053%=      5-min Rain = 0
KSC1 080024Z 12008KT 29/18 A2995 RMK A01 T02850180  RH  053%=      5-min Rain = 0
KSC1 080025Z 13008KT 29/18 A2995 RMK A01 T02850180  RH  053%=      5-min Rain = 0
KSC1 080026Z 13008KT 28/18 A2995 RMK A01 T02840180  RH  053%=      5-min Rain = 0
KSC1 080027Z 14009KT 28/18 A2995 RMK A01 T02840180  RH  053%=      5-min Rain = 0
KSC1 080028Z 12007G13KT 28/18 A2995 RMK A01 T02830179  RH  053%=      5-min Rain = 0
KSC1 080029Z 12010KT 28/18 A2995 RMK A01 T02830178  RH  053%=      5-min Rain = 0
KSC1 080030Z 13009KT 28/18 A2995 RMK A01 T02830176  RH  052%=      5-min Rain = 0
KSC1 080031Z 14007G12KT 28/18 A2995 RMK A01 T02820177  RH  053%=      5-min Rain = 0
KSC1 080032Z 13006KT 28/18 A2995 RMK A01 T02820176  RH  053%=      5-min Rain = 0
KSC1 080033Z 13007KT 28/18 A2995 RMK A01 T02820176  RH  053%=      5-min Rain = 0
KSC1 080034Z 12010KT 28/18 A2995 RMK A01 T02820175  RH  052%=      5-min Rain = 0
KSC1 080035Z 13012KT 28/17 A2995 RMK A01 T02810172  RH  051%=      5-min Rain = 0
KSC1 080036Z 14010KT 28/17 A2995 RMK A01 T02810171  RH  051%=      5-min Rain = 0
KSC1 080037Z 13009KT 28/17 A2995 RMK A01 T02810173  RH  052%=      5-min Rain = 0
KSC1 080038Z 13011KT 28/17 A2995 RMK A01 T02800173  RH  052%=      5-min Rain = 0
KSC1 080039Z 13007KT 28/17 A2995 RMK A01 T02800174  RH  052%=      5-min Rain = 0
KSC1 080040Z 13004KT 28/18 A2995 RMK A01 T02800175  RH  053%=      5-min Rain = 0
KSC1 080041Z 14007KT 28/17 A2995 RMK A01 T02800173  RH  052%=      5-min Rain = 0
KSC1 080042Z 13008KT 28/17 A2995 RMK A01 T02810173  RH  052%=      5-min Rain = 0
KSC1 080043Z 12007KT 28/17 A2996 RMK A01 T02810174  RH  052%=      5-min Rain = 0
KSC1 080044Z 11009KT 28/17 A2996 RMK A01 T02820174  RH  052%=      5-min Rain = 0
KSC1 080045Z 11009KT 28/18 A2996 RMK A01 T02820175  RH  052%=      5-min Rain = 0
KSC1 080046Z 11009KT 28/17 A2996 RMK A01 T02810173  RH  052%=      5-min Rain = 0
KSC1 080047Z 11008KT 28/17 A2996 RMK A01 T02800174  RH  052%=      5-min Rain = 0
KSC1 080048Z 12009KT 28/17 A2996 RMK A01 T02800174  RH  052%=      5-min Rain = 0
KSC1 080049Z 13006KT 28/17 A2996 RMK A01 T02800172  RH  052%=      5-min Rain = 0
KSC1 080050Z 13009KT 28/17 A2996 RMK A01 T02790171  RH  052%=      5-min Rain = 0
KSC1 080051Z 13010KT 28/17 A2996 RMK A01 T02790168  RH  051%=      5-min Rain = 0
KSC1 080052Z 13010KT 28/17 A2996 RMK A01 T02780165  RH  050%=      5-min Rain = 0
KSC1 080053Z 14008KT 28/16 A2996 RMK A01 T02780163  RH  050%=      5-min Rain = 0
KSC1 080054Z 15008KT 28/16 A2995 RMK A01 T02770162  RH  049%=      5-min Rain = 0
KSC1 080055Z 14007KT 28/16 A2995 RMK A01 T02770162  RH  049%=      5-min Rain = 0
KSC1 080056Z 13008KT 28/16 A2996 RMK A01 T02780162  RH  049%=      5-min Rain = 0
KSC1 080057Z 13008KT 28/16 A2996 RMK A01 T02780161  RH  049%=      5-min Rain = 0
KSC1 080058Z 14009KT 28/16 A2996 RMK A01 T02780162  RH  049%=      5-min Rain = 0
KSC1 080059Z 13010KT 28/16 A2996 RMK A01 T02770163  RH  050%=      5-min Rain = 0
KSC1 080100Z 13008KT 28/16 A2996 RMK A01 T02760164  RH  051%=      5-min Rain = 0
KSC1 080101Z 14007KT 28/17 A2996 RMK A01 T02750165  RH  051%=      5-min Rain = 0
KSC1 080102Z 14006KT 28/17 A2995 RMK A01 T02750165  RH  051%=      5-min Rain = 0
KSC1 080103Z 13007KT 28/17 A2995 RMK A01 T02750166  RH  052%=      5-min Rain = 0
KSC1 080104Z 13008KT 28/17 A2995 RMK A01 T02750167  RH  052%=      5-min Rain = 0
KSC1 080105Z 14007KT 28/17 A2995 RMK A01 T02750167  RH  052%=      5-min Rain = 0
KSC1 080106Z 13006KT 28/17 A2995 RMK A01 T02750168  RH  052%=      5-min Rain = 0
KSC1 080107Z 12005KT 28/17 A2995 RMK A01 T02750168  RH  052%=      5-min Rain = 0
KSC1 080108Z 11005KT 28/17 A2995 RMK A01 T02750168  RH  052%=      5-min Rain = 0
KSC1 080109Z 11007KT 28/17 A2996 RMK A01 T02750168  RH  052%=      5-min Rain = 0
KSC1 080110Z 11007KT 28/17 A2996 RMK A01 T02750167  RH  052%=      5-min Rain = 0
KSC1 080111Z 11009KT 28/17 A2996 RMK A01 T02750167  RH  052%=      5-min Rain = 0
KSC1 080112Z 11008KT 27/17 A2996 RMK A01 T02740166  RH  052%=      5-min Rain = 0
KSC1 080113Z 11008KT 27/17 A2996 RMK A01 T02740165  RH  051%=      5-min Rain = 0
KSC1 080114Z 12008KT 27/16 A2996 RMK A01 T02730163  RH  051%=      5-min Rain = 0
KSC1 080115Z 11008KT 27/16 A2996 RMK A01 T02730162  RH  051%=      5-min Rain = 0
KSC1 080116Z 13007G12KT 27/16 A2996 RMK A01 T02730161  RH  050%=      5-min Rain = 0
KSC1 080117Z 12007KT 27/16 A2996 RMK A01 T02730160  RH  050%=      5-min Rain = 0
KSC1 080118Z 13006KT 27/16 A2996 RMK A01 T02720159  RH  050%=      5-min Rain = 0
KSC1 080119Z 14007KT 27/16 A2995 RMK A01 T02720159  RH  050%=      5-min Rain = 0
KSC1 080120Z 13006KT 27/16 A2996 RMK A01 T02720160  RH  050%=      5-min Rain = 0
KSC1 080121Z 13007KT 27/16 A2996 RMK A01 T02710161  RH  051%=      5-min Rain = 0
KSC1 080122Z 11007KT 27/16 A2996 RMK A01 T02710161  RH  051%=      5-min Rain = 0
KSC1 080123Z 11008KT 27/16 A2996 RMK A01 T02710162  RH  051%=      5-min Rain = 0
KSC1 080124Z 11008KT 27/16 A2996 RMK A01 T02700162  RH  052%=      5-min Rain = 0
KSC1 080125Z 11007KT 27/16 A2996 RMK A01 T02700162  RH  052%=      5-min Rain = 0
KSC1 080126Z 11007KT 27/16 A2996 RMK A01 T02690163  RH  052%=      5-min Rain = 0
KSC1 080127Z 11006KT 27/16 A2996 RMK A01 T02690163  RH  052%=      5-min Rain = 0
KSC1 080128Z 10009KT 27/16 A2996 RMK A01 T02690163  RH  052%=      5-min Rain = 0
KSC1 080129Z 11009KT 27/16 A2996 RMK A01 T02680163  RH  053%=      5-min Rain = 0
KSC1 080130Z 10008KT 27/16 A2996 RMK A01 T02670163  RH  053%=      5-min Rain = 0
KSC1 080131Z 11009KT 27/16 A2996 RMK A01 T02670163  RH  053%=      5-min Rain = 0
KSC1 080132Z 11008KT 27/16 A2996 RMK A01 T02670164  RH  053%=      5-min Rain = 0
KSC1 080133Z 11008KT 27/16 A2996 RMK A01 T02660163  RH  053%=      5-min Rain = 0
KSC1 080134Z 11009KT 27/16 A2996 RMK A01 T02660164  RH  054%=      5-min Rain = 0
KSC1 080135Z 11008KT 27/16 A2996 RMK A01 T02650164  RH  054%=      5-min Rain = 0
KSC1 080136Z 12008KT 27/16 A2996 RMK A01 T02650164  RH  054%=      5-min Rain = 0
KSC1 080137Z 12007KT 26/16 A2996 RMK A01 T02640164  RH  054%=      5-min Rain = 0
KSC1 080138Z 12008KT 26/16 A2996 RMK A01 T02640164  RH  054%=      5-min Rain = 0
KSC1 080139Z 12007KT 26/16 A2996 RMK A01 T02640164  RH  054%=      5-min Rain = 0
KSC1 080140Z 12007KT 26/16 A2996 RMK A01 T02630164  RH  054%=      5-min Rain = 0
KSC1 080141Z 12007KT 26/16 A2996 RMK A01 T02630164  RH  055%=      5-min Rain = 0
KSC1 080142Z 11006KT 26/16 A2996 RMK A01 T02620164  RH  055%=      5-min Rain = 0
KSC1 080143Z 13006KT 26/16 A2996 RMK A01 T02620164  RH  055%=      5-min Rain = 0
KSC1 080144Z 13004KT 26/16 A2996 RMK A01 T02610164  RH  055%=      5-min Rain = 0
KSC1 080145Z 13004KT 26/16 A2996 RMK A01 T02610164  RH  055%=      5-min Rain = 0
KSC1 080146Z 12005KT 26/17 A2996 RMK A01 T02610165  RH  056%=      5-min Rain = 0
KSC1 080147Z 12006KT 26/17 A2996 RMK A01 T02600165  RH  056%=      5-min Rain = 0
KSC1 080148Z 12006KT 26/17 A2996 RMK A01 T02590165  RH  056%=      5-min Rain = 0
KSC1 080149Z 12005KT 26/17 A2995 RMK A01 T02590165  RH  056%=      5-min Rain = 0
KSC1 080150Z 13004KT 26/17 A2995 RMK A01 T02590165  RH  056%=      5-min Rain = 0
KSC1 080151Z 14003KT 26/17 A2995 RMK A01 T02590165  RH  056%=      5-min Rain = 0
KSC1 080152Z 13005KT 26/17 A2995 RMK A01 T02580166  RH  056%=      5-min Rain = 0
KSC1 080153Z 12006KT 26/17 A2995 RMK A01 T02580165  RH  056%=      5-min Rain = 0
KSC1 080154Z 12008KT 26/16 A2995 RMK A01 T02580164  RH  056%=      5-min Rain = 0
KSC1 080155Z 11008KT 26/16 A2995 RMK A01 T02570164  RH  056%=      5-min Rain = 0
KSC1 080156Z 12007KT 26/16 A2995 RMK A01 T02570164  RH  056%=      5-min Rain = 0
KSC1 080157Z 13007KT 26/16 A2995 RMK A01 T02570164  RH  057%=      5-min Rain = 0
KSC1 080158Z 13007KT 26/16 A2995 RMK A01 T02560164  RH  057%=      5-min Rain = 0
KSC1 080159Z 13005KT 26/17 A2995 RMK A01 T02560165  RH  057%=      5-min Rain = 0
KSC1 080200Z 12006KT 26/17 A2995 RMK A01 T02550165  RH  057%=      5-min Rain = 0
KSC1 080201Z 11005KT 26/17 A2995 RMK A01 T02550165  RH  057%=      5-min Rain = 0
KSC1 080202Z 12007KT 25/17 A2995 RMK A01 T02540165  RH  058%=      5-min Rain = 0
KSC1 080203Z 11006KT 25/17 A2995 RMK A01 T02540166  RH  058%=      5-min Rain = 0
KSC1 080204Z 11006KT 25/17 A2995 RMK A01 T02530166  RH  058%=      5-min Rain = 0
KSC1 080205Z 11005KT 25/17 A2995 RMK A01 T02530167  RH  059%=      5-min Rain = 0
KSC1 080206Z 11007KT 25/17 A2995 RMK A01 T02520167  RH  059%=      5-min Rain = 0
KSC1 080207Z 12005KT 25/17 A2995 RMK A01 T02520167  RH  059%=      5-min Rain = 0
KSC1 080208Z 12005KT 25/17 A2995 RMK A01 T02520167  RH  059%=      5-min Rain = 0
KSC1 080209Z 13004KT 25/17 A2995 RMK A01 T02520167  RH  059%=      5-min Rain = 0
KSC1 080210Z 13003KT 25/17 A2995 RMK A01 T02520167  RH  060%=      5-min Rain = 0
KSC1 080211Z 14003KT 25/17 A2995 RMK A01 T02510168  RH  060%=      5-min Rain = 0
KSC1 080212Z 13003KT 25/17 A2995 RMK A01 T02510168  RH  060%=      5-min Rain = 0
KSC1 080213Z 13003KT 25/17 A2995 RMK A01 T02510168  RH  060%=      5-min Rain = 0
KSC1 080214Z 11003KT 25/17 A2995 RMK A01 T02500168  RH  060%=      5-min Rain = 0
KSC1 080215Z 10004KT 25/17 A2995 RMK A01 T02500169  RH  061%=      5-min Rain = 0
KSC1 080216Z 09005KT 25/17 A2995 RMK A01 T02490169  RH  061%=      5-min Rain = 0
KSC1 080217Z 09004KT 25/17 A2995 RMK A01 T02480170  RH  062%=      5-min Rain = 0
KSC1 080218Z 09004KT 25/17 A2995 RMK A01 T02470171  RH  062%=      5-min Rain = 0
KSC1 080219Z 09003KT 25/17 A2995 RMK A01 T02470171  RH  063%=      5-min Rain = 0
KSC1 080220Z 10002KT 25/17 A2995 RMK A01 T02470172  RH  063%=      5-min Rain = 0
KSC1 080221Z 11003KT 25/17 A2995 RMK A01 T02470173  RH  064%=      5-min Rain = 0
KSC1 080222Z 12003KT 25/17 A2995 RMK A01 T02460173  RH  064%=      5-min Rain = 0
KSC1 080223Z 12003KT 25/18 A2995 RMK A01 T02460175  RH  065%=      5-min Rain = 0
KSC1 080224Z 12004KT 25/18 A2995 RMK A01 T02450176  RH  065%=      5-min Rain = 0
KSC1 080225Z 12004KT 25/18 A2995 RMK A01 T02450178  RH  066%=      5-min Rain = 0
KSC1 080226Z 11004KT 24/18 A2995 RMK A01 T02440178  RH  067%=      5-min Rain = 0
KSC1 080227Z 10004KT 24/18 A2995 RMK A01 T02430178  RH  067%=      5-min Rain = 0
KSC1 080228Z 09004KT 24/18 A2996 RMK A01 T02420179  RH  068%=      5-min Rain = 0
KSC1 080229Z 10004KT 24/18 A2996 RMK A01 T02420181  RH  069%=      5-min Rain = 0
KSC1 080230Z 09003KT 24/18 A2996 RMK A01 T02420182  RH  069%=      5-min Rain = 0
KSC1 080231Z 10002KT 24/18 A2995 RMK A01 T02420183  RH  069%=      5-min Rain = 0
KSC1 080232Z 12003KT 24/18 A2995 RMK A01 T02420183  RH  070%=      5-min Rain = 0
KSC1 080233Z 14003KT 24/18 A2995 RMK A01 T02420183  RH  070%=      5-min Rain = 0
KSC1 080234Z 15004KT 24/18 A2995 RMK A01 T02410183  RH  070%=      5-min Rain = 0
KSC1 080235Z 16003KT 24/18 A2995 RMK A01 T02410183  RH  070%=      5-min Rain = 0
KSC1 080236Z 18002KT 24/18 A2995 RMK A01 T02410182  RH  070%=      5-min Rain = 0
KSC1 080237Z 16002KT 24/18 A2995 RMK A01 T02410182  RH  069%=      5-min Rain = 0
KSC1 080238Z 14002KT 24/18 A2996 RMK A01 T02400180  RH  069%=      5-min Rain = 0
KSC1 080239Z 12002KT 24/18 A2996 RMK A01 T02400180  RH  069%=      5-min Rain = 0
KSC1 080240Z 11003KT 24/18 A2996 RMK A01 T02400180  RH  069%=      5-min Rain = 0
KSC1 080241Z 10004KT 24/18 A2996 RMK A01 T02400179  RH  069%=      5-min Rain = 0
KSC1 080242Z 10005KT 24/18 A2996 RMK A01 T02400178  RH  068%=      5-min Rain = 0
KSC1 080243Z 11004KT 24/18 A2996 RMK A01 T02400177  RH  068%=      5-min Rain = 0
KSC1 080244Z 11005KT 24/18 A2996 RMK A01 T02400176  RH  067%=      5-min Rain = 0
KSC1 080245Z 13003KT 24/18 A2996 RMK A01 T02400175  RH  067%=      5-min Rain = 0
KSC1 080246Z 15003KT 24/17 A2996 RMK A01 T02400174  RH  067%=      5-min Rain = 0
KSC1 080247Z 16003KT 24/17 A2996 RMK A01 T02410174  RH  066%=      5-min Rain = 0
KSC1 080248Z 16004KT 24/17 A2996 RMK A01 T02410174  RH  066%=      5-min Rain = 0
KSC1 080249Z 17003KT 24/17 A2996 RMK A01 T02410174  RH  066%=      5-min Rain = 0
KSC1 080250Z 17003KT 24/17 A2995 RMK A01 T02410173  RH  066%=      5-min Rain = 0
KSC1 080251Z 16003KT 24/17 A2996 RMK A01 T02410173  RH  066%=      5-min Rain = 0
KSC1 080252Z 15003KT 24/17 A2996 RMK A01 T02400173  RH  066%=      5-min Rain = 0
KSC1 080253Z 12003KT 24/17 A2996 RMK A01 T02410174  RH  066%=      5-min Rain = 0
KSC1 080254Z 11003KT 24/17 A2996 RMK A01 T02400173  RH  066%=      5-min Rain = 0
KSC1 080255Z 10003KT 24/17 A2996 RMK A01 T02390173  RH  066%=      5-min Rain = 0
KSC1 080256Z 09004KT 24/17 A2996 RMK A01 T02380173  RH  067%=      5-min Rain = 0
KSC1 080257Z 09004KT 24/17 A2996 RMK A01 T02380173  RH  067%=      5-min Rain = 0
KSC1 080258Z 09004KT 24/17 A2996 RMK A01 T02370173  RH  067%=      5-min Rain = 0
KSC1 080259Z 09004KT 24/17 A2996 RMK A01 T02370173  RH  068%=      5-min Rain = 0
KSC1 080300Z 10004KT 24/17 A2996 RMK A01 T02360173  RH  068%=      5-min Rain = 0
KSC1 080301Z 10003KT 24/17 A2996 RMK A01 T02360173  RH  068%=      5-min Rain = 0
KSC1 080302Z 11003KT 24/17 A2996 RMK A01 T02350173  RH  068%=      5-min Rain = 0
KSC1 080303Z 10002KT 24/17 A2996 RMK A01 T02350174  RH  068%=      5-min Rain = 0
KSC1 080304Z 10002KT 24/18 A2996 RMK A01 T02360175  RH  069%=      5-min Rain = 0
KSC1 080305Z 10002KT 24/17 A2996 RMK A01 T02350174  RH  069%=      5-min Rain = 0
KSC1 080306Z 09002KT 24/18 A2996 RMK A01 T02350175  RH  069%=      5-min Rain = 0
KSC1 080307Z 08002KT 24/18 A2996 RMK A01 T02350175  RH  069%=      5-min Rain = 0
KSC1 080308Z 08003KT 23/18 A2997 RMK A01 T02340176  RH  070%=      5-min Rain = 0
KSC1 080309Z 09003KT 23/18 A2997 RMK A01 T02340176  RH  070%=      5-min Rain = 0
KSC1 080310Z 09003KT 23/18 A2997 RMK A01 T02340177  RH  070%=      5-min Rain = 0
KSC1 080311Z 09003KT 23/18 A2997 RMK A01 T02340177  RH  070%=      5-min Rain = 0
KSC1 080312Z 08002KT 23/18 A2997 RMK A01 T02330177  RH  071%=      5-min Rain = 0
KSC1 080313Z 08002KT 23/18 A2997 RMK A01 T02330177  RH  071%=      5-min Rain = 0
KSC1 080314Z 07003KT 23/18 A2997 RMK A01 T02330178  RH  071%=      5-min Rain = 0
KSC1 080315Z 07003KT 23/18 A2997 RMK A01 T02320179  RH  072%=      5-min Rain = 0
KSC1 080316Z 08003KT 23/18 A2997 RMK A01 T02320180  RH  072%=      5-min Rain = 0
KSC1 080317Z 09004KT 23/18 A2997 RMK A01 T02320179  RH  072%=      5-min Rain = 0
KSC1 080318Z 09004KT 23/18 A2997 RMK A01 T02320179  RH  072%=      5-min Rain = 0
KSC1 080319Z 09003KT 23/18 A2997 RMK A01 T02320178  RH  072%=      5-min Rain = 0
KSC1 080320Z 09003KT 23/18 A2997 RMK A01 T02320178  RH  072%=      5-min Rain = 0
KSC1 080321Z 09003KT 23/18 A2997 RMK A01 T02310178  RH  072%=      5-min Rain = 0
KSC1 080322Z 09003KT 23/18 A2997 RMK A01 T02310178  RH  072%=      5-min Rain = 0
KSC1 080323Z 09004KT 23/18 A2997 RMK A01 T02310178  RH  072%=      5-min Rain = 0
KSC1 080324Z 09004KT 23/18 A2997 RMK A01 T02300178  RH  072%=      5-min Rain = 0
KSC1 080325Z 08005KT 23/18 A2997 RMK A01 T02300179  RH  073%=      5-min Rain = 0
KSC1 080326Z 08004KT 23/18 A2997 RMK A01 T02290180  RH  074%=      5-min Rain = 0
KSC1 080327Z 08003KT 23/18 A2997 RMK A01 T02290180  RH  074%=      5-min Rain = 0
KSC1 080328Z 09003KT 23/18 A2997 RMK A01 T02290181  RH  074%=      5-min Rain = 0
KSC1 080329Z 09003KT 23/18 A2997 RMK A01 T02280181  RH  075%=      5-min Rain = 0
KSC1 080330Z 09003KT 23/18 A2997 RMK A01 T02280181  RH  075%=      5-min Rain = 0
KSC1 080331Z 09003KT 23/18 A2997 RMK A01 T02280181  RH  075%=      5-min Rain = 0
KSC1 080332Z 08003KT 23/18 A2997 RMK A01 T02280181  RH  075%=      5-min Rain = 0
KSC1 080333Z 08003KT 23/18 A2997 RMK A01 T02270182  RH  076%=      5-min Rain = 0
KSC1 080334Z 08003KT 23/18 A2997 RMK A01 T02270183  RH  076%=      5-min Rain = 0
KSC1 080335Z 06003KT 23/18 A2997 RMK A01 T02260183  RH  077%=      5-min Rain = 0
KSC1 080336Z 06004KT 23/18 A2997 RMK A01 T02250184  RH  077%=      5-min Rain = 0
KSC1 080337Z 07003KT 23/18 A2997 RMK A01 T02250184  RH  078%=      5-min Rain = 0
KSC1 080338Z 09002KT 22/18 A2997 RMK A01 T02240184  RH  078%=      5-min Rain = 0
KSC1 080339Z 13002KT 22/18 A2997 RMK A01 T02230184  RH  078%=      5-min Rain = 0
KSC1 080340Z 13002KT 22/18 A2998 RMK A01 T02230184  RH  078%=      5-min Rain = 0
KSC1 080341Z 14001KT 22/18 A2998 RMK A01 T02230183  RH  078%=      5-min Rain = 0
KSC1 080342Z 11001KT 22/18 A2998 RMK A01 T02230183  RH  078%=      5-min Rain = 0
KSC1 080343Z 09002KT 22/18 A2998 RMK A01 T02220182  RH  078%=      5-min Rain = 0
KSC1 080344Z 08002KT 22/18 A2998 RMK A01 T02220183  RH  079%=      5-min Rain = 0
KSC1 080345Z 08002KT 22/18 A2998 RMK A01 T02210183  RH  079%=      5-min Rain = 0
KSC1 080346Z 09002KT 22/18 A2998 RMK A01 T02210184  RH  079%=      5-min Rain = 0
KSC1 080347Z 09002KT 22/18 A2998 RMK A01 T02210183  RH  079%=      5-min Rain = 0
KSC1 080348Z 08003KT 22/18 A2998 RMK A01 T02200183  RH  079%=      5-min Rain = 0
KSC1 080349Z 08004KT 22/18 A2998 RMK A01 T02200184  RH  080%=      5-min Rain = 0
KSC1 080350Z 07005KT 22/18 A2998 RMK A01 T02200183  RH  080%=      5-min Rain = 0
KSC1 080351Z 07004KT 22/18 A2998 RMK A01 T02200183  RH  080%=      5-min Rain = 0
KSC1 080352Z 07003KT 22/18 A2998 RMK A01 T02200183  RH  080%=      5-min Rain = 0
KSC1 080353Z 07004KT 22/18 A2998 RMK A01 T02200183  RH  080%=      5-min Rain = 0
KSC1 080354Z 07004KT 22/18 A2998 RMK A01 T02200183  RH  080%=      5-min Rain = 0
KSC1 080355Z 07005KT 22/18 A2998 RMK A01 T02200183  RH  079%=      5-min Rain = 0
KSC1 080356Z 07005KT 22/18 A2998 RMK A01 T02200183  RH  079%=      5-min Rain = 0
KSC1 080357Z 07005KT 22/18 A2998 RMK A01 T02200183  RH  079%=      5-min Rain = 0
KSC1 080358Z 08005KT 22/18 A2998 RMK A01 T02200183  RH  079%=      5-min Rain = 0
KSC1 080359Z 08004KT 22/18 A2998 RMK A01 T02200183  RH  079%=      5-min Rain = 0
KSC1 080400Z 08004KT 22/18 A2998 RMK A01 T02200183  RH  079%=      5-min Rain = 0
KSC1 080401Z 08004KT 22/18 A2998 RMK A01 T02200183  RH  079%=      5-min Rain = 0
KSC1 080402Z 08004KT 22/18 A2998 RMK A01 T02200182  RH  079%=      5-min Rain = 0
KSC1 080403Z 08004KT 22/18 A2998 RMK A01 T02200183  RH  079%=      5-min Rain = 0
KSC1 080404Z 08004KT 22/18 A2998 RMK A01 T02190182  RH  079%=      5-min Rain = 0
KSC1 080405Z 08004KT 22/18 A2998 RMK A01 T02190182  RH  079%=      5-min Rain = 0
KSC1 080406Z 08004KT 22/18 A2998 RMK A01 T02190182  RH  079%=      5-min Rain = 0
KSC1 080407Z 08004KT 22/18 A2998 RMK A01 T02190182  RH  080%=      5-min Rain = 0
KSC1 080408Z 09004KT 22/18 A2998 RMK A01 T02180182  RH  080%=      5-min Rain = 0
KSC1 080409Z 09004KT 22/18 A2998 RMK A01 T02180182  RH  080%=      5-min Rain = 0
KSC1 080410Z 09004KT 22/18 A2998 RMK A01 T02170182  RH  080%=      5-min Rain = 0
KSC1 080411Z 09004KT 22/18 A2999 RMK A01 T02170182  RH  080%=      5-min Rain = 0
KSC1 080412Z 09004KT 22/18 A2999 RMK A01 T02170182  RH  081%=      5-min Rain = 0
KSC1 080413Z 10004KT 22/18 A2999 RMK A01 T02160182  RH  081%=      5-min Rain = 0
KSC1 080414Z 10004KT 22/18 A2998 RMK A01 T02150182  RH  082%=      5-min Rain = 0
KSC1 080415Z 10003KT 22/18 A2998 RMK A01 T02150183  RH  082%=      5-min Rain = 0
KSC1 080416Z 10003KT 22/18 A2999 RMK A01 T02150183  RH  082%=      5-min Rain = 0
KSC1 080417Z 10003KT 22/18 A2999 RMK A01 T02150184  RH  082%=      5-min Rain = 0
KSC1 080418Z 10003KT 22/18 A2999 RMK A01 T02150183  RH  082%=      5-min Rain = 0
KSC1 080419Z 12003KT 21/18 A2999 RMK A01 T02140183  RH  082%=      5-min Rain = 0
KSC1 080420Z 12003KT 21/18 A2999 RMK A01 T02140183  RH  082%=      5-min Rain = 0
KSC1 080421Z 12003KT 21/18 A2999 RMK A01 T02140183  RH  083%=      5-min Rain = 0
KSC1 080422Z 11003KT 22/18 A2999 RMK A01 T02150184  RH  083%=      5-min Rain = 0
KSC1 080423Z 11002KT 21/18 A2999 RMK A01 T02140183  RH  083%=      5-min Rain = 0
KSC1 080424Z 12002KT 21/18 A2999 RMK A01 T02140183  RH  083%=      5-min Rain = 0
KSC1 080425Z 11002KT 21/18 A2999 RMK A01 T02140184  RH  083%=      5-min Rain = 0
KSC1 080426Z 11003KT 21/18 A2999 RMK A01 T02140183  RH  083%=      5-min Rain = 0
KSC1 080427Z 11003KT 21/18 A2999 RMK A01 T02140183  RH  083%=      5-min Rain = 0
KSC1 080428Z 10004KT 21/18 A2999 RMK A01 T02130183  RH  083%=      5-min Rain = 0
KSC1 080429Z 10004KT 21/18 A2999 RMK A01 T02130183  RH  083%=      5-min Rain = 0
KSC1 080430Z 10004KT 21/18 A2999 RMK A01 T02120184  RH  084%=      5-min Rain = 0
KSC1 080431Z 11003KT 21/18 A2999 RMK A01 T02120184  RH  084%=      5-min Rain = 0
KSC1 080432Z 11002KT 21/18 A2999 RMK A01 T02120184  RH  084%=      5-min Rain = 0
KSC1 080433Z 11002KT 21/19 A2999 RMK A01 T02120185  RH  084%=      5-min Rain = 0
KSC1 080434Z 11002KT 21/19 A2999 RMK A01 T02120185  RH  084%=      5-min Rain = 0
KSC1 080435Z 10002KT 21/19 A2999 RMK A01 T02120185  RH  085%=      5-min Rain = 0
KSC1 080436Z 10002KT 21/19 A2999 RMK A01 T02120186  RH  085%=      5-min Rain = 0
KSC1 080437Z 10001KT 21/19 A2999 RMK A01 T02120185  RH  085%=      5-min Rain = 0
KSC1 080438Z 10002KT 21/19 A2999 RMK A01 T02120185  RH  085%=      5-min Rain = 0
KSC1 080439Z 10002KT 21/19 A2999 RMK A01 T02120186  RH  085%=      5-min Rain = 0
KSC1 080440Z 10002KT 21/19 A2999 RMK A01 T02120186  RH  085%=      5-min Rain = 0
KSC1 080441Z 09002KT 21/19 A2999 RMK A01 T02130186  RH  085%=      5-min Rain = 0
KSC1 080442Z 08003KT 21/19 A2999 RMK A01 T02140186  RH  084%=      5-min Rain = 0
KSC1 080443Z 08003KT 21/19 A2999 RMK A01 T02140186  RH  084%=      5-min Rain = 0
KSC1 080444Z 09004KT 21/19 A2999 RMK A01 T02140186  RH  084%=      5-min Rain = 0
KSC1 080445Z 09004KT 21/19 A2999 RMK A01 T02140186  RH  084%=      5-min Rain = 0
KSC1 080446Z 09003KT 21/19 A2999 RMK A01 T02140186  RH  084%=      5-min Rain = 0
KSC1 080447Z 10004KT 21/19 A2999 RMK A01 T02140188  RH  085%=      5-min Rain = 0
KSC1 080448Z 10003KT 21/19 A2999 RMK A01 T02140188  RH  085%=      5-min Rain = 0
KSC1 080449Z 10003KT 21/19 A2999 RMK A01 T02140188  RH  085%=      5-min Rain = 0
KSC1 080450Z 11003KT 21/19 A2999 RMK A01 T02140188  RH  085%=      5-min Rain = 0
KSC1 080451Z 12003KT 21/19 A2999 RMK A01 T02140188  RH  085%=      5-min Rain = 0
KSC1 080452Z 12003KT 21/19 A2999 RMK A01 T02140188  RH  085%=      5-min Rain = 0
KSC1 080453Z 12003KT 21/19 A2999 RMK A01 T02140189  RH  085%=      5-min Rain = 0
KSC1 080454Z 12003KT 21/19 A2999 RMK A01 T02140189  RH  086%=      5-min Rain = 0
KSC1 080455Z 11003KT 21/19 A2999 RMK A01 T02140189  RH  086%=      5-min Rain = 0
KSC1 080456Z 11003KT 21/19 A2999 RMK A01 T02140190  RH  086%=      5-min Rain = 0
KSC1 080457Z 10003KT 22/19 A2999 RMK A01 T02150189  RH  085%=      5-min Rain = 0
KSC1 080458Z 10003KT 22/19 A2999 RMK A01 T02150189  RH  085%=      5-min Rain = 0
KSC1 080459Z 10003KT 21/19 A2999 RMK A01 T02140189  RH  085%=      5-min Rain = 0

Page generated in 0.1217 seconds.